<?xml version="1.0" encoding="UTF-8" standalone="no" ?>
<gpx xmlns="http://www.topografix.com/GPX/1/1" xmlns:xsi="http://www.w3.org/2001/XMLSchema-instance" xsi:schemaLocation="http://www.topografix.com/GPX/1/1 http://www.topografix.com/GPX/1/1/gpx.xsd" version="1.1" creator="VisuGPX - https://www.visugpx.com">
  <metadata>
    <name>De Thomery à Montigny-sur-Loing</name>
    <desc><![CDATA[Départ à la gare SNCF de Thomery, arrivée à la gare SNCF de Montigny-sur-Loing. Daniel BAIJOT]]></desc>
  </metadata>
  <trk>
    <name><![CDATA[THM]]></name>
    <trkseg>
      <trkpt lat="48.39442" lon="2.76468">
        <ele>98.67</ele>
        <time>2014-08-15T08:06:45Z</time>
      </trkpt>
      <trkpt lat="48.39442" lon="2.76438">
        <ele>96.27</ele>
        <time>2014-08-15T08:07:04Z</time>
      </trkpt>
      <trkpt lat="48.39446" lon="2.7641">
        <ele>92.42</ele>
        <time>2014-08-15T08:07:20Z</time>
      </trkpt>
      <trkpt lat="48.39445" lon="2.76398">
        <ele>91.46</ele>
        <time>2014-08-15T08:07:26Z</time>
      </trkpt>
      <trkpt lat="48.39453" lon="2.76394">
        <ele>88.58</ele>
        <time>2014-08-15T08:07:35Z</time>
      </trkpt>
      <trkpt lat="48.39454" lon="2.76386">
        <ele>88.58</ele>
        <time>2014-08-15T08:07:48Z</time>
      </trkpt>
      <trkpt lat="48.39421" lon="2.76382">
        <ele>88.58</ele>
        <time>2014-08-15T08:08:20Z</time>
      </trkpt>
      <trkpt lat="48.39395" lon="2.76399">
        <ele>89.06</ele>
        <time>2014-08-15T08:08:36Z</time>
      </trkpt>
      <trkpt lat="48.39372" lon="2.76399">
        <ele>88.1</ele>
        <time>2014-08-15T08:08:54Z</time>
      </trkpt>
      <trkpt lat="48.39368" lon="2.76398">
        <ele>89.06</ele>
        <time>2014-08-15T08:08:56Z</time>
      </trkpt>
      <trkpt lat="48.39358" lon="2.76395">
        <ele>90.98</ele>
        <time>2014-08-15T08:09:10Z</time>
      </trkpt>
      <trkpt lat="48.39357" lon="2.764">
        <ele>91.94</ele>
        <time>2014-08-15T08:09:38Z</time>
      </trkpt>
      <trkpt lat="48.39342" lon="2.76398">
        <ele>92.42</ele>
        <time>2014-08-15T08:09:52Z</time>
      </trkpt>
      <trkpt lat="48.39332" lon="2.76399">
        <ele>92.9</ele>
        <time>2014-08-15T08:09:59Z</time>
      </trkpt>
      <trkpt lat="48.39322" lon="2.76401">
        <ele>93.87</ele>
        <time>2014-08-15T08:10:06Z</time>
      </trkpt>
      <trkpt lat="48.39303" lon="2.76398">
        <ele>93.39</ele>
        <time>2014-08-15T08:10:22Z</time>
      </trkpt>
      <trkpt lat="48.39298" lon="2.764">
        <ele>94.35</ele>
        <time>2014-08-15T08:10:35Z</time>
      </trkpt>
      <trkpt lat="48.39289" lon="2.76398">
        <ele>95.79</ele>
        <time>2014-08-15T08:10:45Z</time>
      </trkpt>
      <trkpt lat="48.39286" lon="2.76398">
        <ele>96.27</ele>
        <time>2014-08-15T08:10:49Z</time>
      </trkpt>
      <trkpt lat="48.39281" lon="2.76398">
        <ele>98.19</ele>
        <time>2014-08-15T08:11:00Z</time>
      </trkpt>
      <trkpt lat="48.39272" lon="2.76399">
        <ele>100.11</ele>
        <time>2014-08-15T08:11:15Z</time>
      </trkpt>
      <trkpt lat="48.3927" lon="2.76401">
        <ele>99.63</ele>
        <time>2014-08-15T08:11:23Z</time>
      </trkpt>
      <trkpt lat="48.39257" lon="2.764">
        <ele>104.44</ele>
        <time>2014-08-15T08:11:36Z</time>
      </trkpt>
      <trkpt lat="48.39245" lon="2.76397">
        <ele>109.25</ele>
        <time>2014-08-15T08:11:47Z</time>
      </trkpt>
      <trkpt lat="48.39223" lon="2.76391">
        <ele>119.34</ele>
        <time>2014-08-15T08:12:02Z</time>
      </trkpt>
      <trkpt lat="48.39206" lon="2.76388">
        <ele>127.99</ele>
        <time>2014-08-15T08:12:16Z</time>
      </trkpt>
      <trkpt lat="48.39183" lon="2.76401">
        <ele>124.15</ele>
        <time>2014-08-15T08:12:30Z</time>
      </trkpt>
      <trkpt lat="48.39162" lon="2.76399">
        <ele>121.74</ele>
        <time>2014-08-15T08:12:45Z</time>
      </trkpt>
      <trkpt lat="48.3916" lon="2.76399">
        <ele>121.26</ele>
        <time>2014-08-15T08:12:47Z</time>
      </trkpt>
      <trkpt lat="48.39152" lon="2.76402">
        <ele>119.82</ele>
        <time>2014-08-15T08:12:53Z</time>
      </trkpt>
      <trkpt lat="48.39136" lon="2.76403">
        <ele>116.46</ele>
        <time>2014-08-15T08:13:07Z</time>
      </trkpt>
      <trkpt lat="48.39123" lon="2.76406">
        <ele>110.69</ele>
        <time>2014-08-15T08:13:19Z</time>
      </trkpt>
      <trkpt lat="48.39102" lon="2.76406">
        <ele>103.48</ele>
        <time>2014-08-15T08:13:33Z</time>
      </trkpt>
      <trkpt lat="48.39093" lon="2.76407">
        <ele>102.04</ele>
        <time>2014-08-15T08:13:38Z</time>
      </trkpt>
      <trkpt lat="48.39055" lon="2.76393">
        <ele>97.23</ele>
        <time>2014-08-15T08:25:13Z</time>
      </trkpt>
      <trkpt lat="48.39056" lon="2.76377">
        <ele>93.87</ele>
        <time>2014-08-15T08:25:23Z</time>
      </trkpt>
      <trkpt lat="48.39061" lon="2.7636">
        <ele>89.54</ele>
        <time>2014-08-15T08:25:37Z</time>
      </trkpt>
      <trkpt lat="48.39063" lon="2.76343">
        <ele>89.54</ele>
        <time>2014-08-15T08:25:45Z</time>
      </trkpt>
      <trkpt lat="48.39064" lon="2.76317">
        <ele>89.06</ele>
        <time>2014-08-15T08:25:55Z</time>
      </trkpt>
      <trkpt lat="48.39062" lon="2.76306">
        <ele>88.58</ele>
        <time>2014-08-15T08:25:59Z</time>
      </trkpt>
      <trkpt lat="48.39057" lon="2.76284">
        <ele>88.58</ele>
        <time>2014-08-15T08:26:13Z</time>
      </trkpt>
      <trkpt lat="48.39057" lon="2.76265">
        <ele>88.58</ele>
        <time>2014-08-15T08:26:27Z</time>
      </trkpt>
      <trkpt lat="48.39058" lon="2.76231">
        <ele>91.94</ele>
        <time>2014-08-15T08:26:44Z</time>
      </trkpt>
      <trkpt lat="48.39056" lon="2.76207">
        <ele>95.31</ele>
        <time>2014-08-15T08:26:56Z</time>
      </trkpt>
      <trkpt lat="48.39056" lon="2.76184">
        <ele>95.79</ele>
        <time>2014-08-15T08:27:06Z</time>
      </trkpt>
      <trkpt lat="48.39057" lon="2.76155">
        <ele>91.46</ele>
        <time>2014-08-15T08:27:19Z</time>
      </trkpt>
      <trkpt lat="48.39057" lon="2.76154">
        <ele>91.46</ele>
        <time>2014-08-15T08:27:20Z</time>
      </trkpt>
      <trkpt lat="48.39055" lon="2.76132">
        <ele>89.54</ele>
        <time>2014-08-15T08:27:35Z</time>
      </trkpt>
      <trkpt lat="48.39055" lon="2.76125">
        <ele>89.54</ele>
        <time>2014-08-15T08:27:41Z</time>
      </trkpt>
      <trkpt lat="48.39057" lon="2.76095">
        <ele>87.62</ele>
        <time>2014-08-15T08:27:51Z</time>
      </trkpt>
      <trkpt lat="48.39056" lon="2.76073">
        <ele>84.73</ele>
        <time>2014-08-15T08:28:01Z</time>
      </trkpt>
      <trkpt lat="48.39058" lon="2.76068">
        <ele>83.29</ele>
        <time>2014-08-15T08:28:05Z</time>
      </trkpt>
      <trkpt lat="48.39056" lon="2.76053">
        <ele>79.45</ele>
        <time>2014-08-15T08:28:14Z</time>
      </trkpt>
      <trkpt lat="48.39054" lon="2.76045">
        <ele>78.48</ele>
        <time>2014-08-15T08:28:17Z</time>
      </trkpt>
      <trkpt lat="48.39054" lon="2.76017">
        <ele>78.48</ele>
        <time>2014-08-15T08:28:32Z</time>
      </trkpt>
      <trkpt lat="48.39053" lon="2.76">
        <ele>79.45</ele>
        <time>2014-08-15T08:28:41Z</time>
      </trkpt>
      <trkpt lat="48.39056" lon="2.75964">
        <ele>78</ele>
        <time>2014-08-15T08:28:54Z</time>
      </trkpt>
      <trkpt lat="48.39056" lon="2.75959">
        <ele>78</ele>
        <time>2014-08-15T08:28:56Z</time>
      </trkpt>
      <trkpt lat="48.39057" lon="2.75948">
        <ele>77.52</ele>
        <time>2014-08-15T08:29:01Z</time>
      </trkpt>
      <trkpt lat="48.3905" lon="2.75923">
        <ele>77.52</ele>
        <time>2014-08-15T08:29:18Z</time>
      </trkpt>
      <trkpt lat="48.39049" lon="2.75901">
        <ele>76.08</ele>
        <time>2014-08-15T08:29:34Z</time>
      </trkpt>
      <trkpt lat="48.39051" lon="2.75883">
        <ele>76.56</ele>
        <time>2014-08-15T08:29:49Z</time>
      </trkpt>
      <trkpt lat="48.39052" lon="2.75868">
        <ele>77.04</ele>
        <time>2014-08-15T08:29:55Z</time>
      </trkpt>
      <trkpt lat="48.39049" lon="2.75843">
        <ele>79.45</ele>
        <time>2014-08-15T08:30:07Z</time>
      </trkpt>
      <trkpt lat="48.39049" lon="2.75815">
        <ele>79.45</ele>
        <time>2014-08-15T08:30:18Z</time>
      </trkpt>
      <trkpt lat="48.39048" lon="2.75794">
        <ele>78.97</ele>
        <time>2014-08-15T08:30:27Z</time>
      </trkpt>
      <trkpt lat="48.39047" lon="2.75774">
        <ele>76.08</ele>
        <time>2014-08-15T08:30:36Z</time>
      </trkpt>
      <trkpt lat="48.39045" lon="2.75739">
        <ele>75.12</ele>
        <time>2014-08-15T08:30:50Z</time>
      </trkpt>
      <trkpt lat="48.39041" lon="2.75712">
        <ele>75.12</ele>
        <time>2014-08-15T08:31:03Z</time>
      </trkpt>
      <trkpt lat="48.3904" lon="2.75701">
        <ele>75.6</ele>
        <time>2014-08-15T08:31:11Z</time>
      </trkpt>
      <trkpt lat="48.39037" lon="2.75678">
        <ele>76.08</ele>
        <time>2014-08-15T08:31:26Z</time>
      </trkpt>
      <trkpt lat="48.39036" lon="2.75655">
        <ele>78.48</ele>
        <time>2014-08-15T08:31:40Z</time>
      </trkpt>
      <trkpt lat="48.39035" lon="2.75628">
        <ele>79.45</ele>
        <time>2014-08-15T08:31:53Z</time>
      </trkpt>
      <trkpt lat="48.39035" lon="2.756">
        <ele>80.41</ele>
        <time>2014-08-15T08:32:03Z</time>
      </trkpt>
      <trkpt lat="48.39033" lon="2.75583">
        <ele>80.89</ele>
        <time>2014-08-15T08:32:13Z</time>
      </trkpt>
      <trkpt lat="48.39029" lon="2.75569">
        <ele>81.85</ele>
        <time>2014-08-15T08:32:21Z</time>
      </trkpt>
      <trkpt lat="48.3903" lon="2.7555">
        <ele>83.29</ele>
        <time>2014-08-15T08:32:32Z</time>
      </trkpt>
      <trkpt lat="48.39023" lon="2.75537">
        <ele>82.33</ele>
        <time>2014-08-15T08:32:44Z</time>
      </trkpt>
      <trkpt lat="48.3901" lon="2.75523">
        <ele>82.33</ele>
        <time>2014-08-15T08:32:59Z</time>
      </trkpt>
      <trkpt lat="48.38999" lon="2.75496">
        <ele>81.37</ele>
        <time>2014-08-15T08:33:13Z</time>
      </trkpt>
      <trkpt lat="48.38996" lon="2.7549">
        <ele>80.89</ele>
        <time>2014-08-15T08:33:16Z</time>
      </trkpt>
      <trkpt lat="48.38994" lon="2.75482">
        <ele>80.41</ele>
        <time>2014-08-15T08:33:20Z</time>
      </trkpt>
      <trkpt lat="48.38978" lon="2.7548">
        <ele>80.41</ele>
        <time>2014-08-15T08:33:35Z</time>
      </trkpt>
      <trkpt lat="48.38958" lon="2.75481">
        <ele>79.93</ele>
        <time>2014-08-15T08:33:53Z</time>
      </trkpt>
      <trkpt lat="48.3894" lon="2.75481">
        <ele>80.41</ele>
        <time>2014-08-15T08:34:07Z</time>
      </trkpt>
      <trkpt lat="48.38932" lon="2.75479">
        <ele>83.29</ele>
        <time>2014-08-15T08:34:13Z</time>
      </trkpt>
      <trkpt lat="48.38922" lon="2.75479">
        <ele>85.21</ele>
        <time>2014-08-15T08:34:20Z</time>
      </trkpt>
      <trkpt lat="48.38919" lon="2.75478">
        <ele>85.69</ele>
        <time>2014-08-15T08:34:22Z</time>
      </trkpt>
      <trkpt lat="48.38915" lon="2.75477">
        <ele>86.18</ele>
        <time>2014-08-15T08:34:24Z</time>
      </trkpt>
      <trkpt lat="48.38897" lon="2.75472">
        <ele>86.18</ele>
        <time>2014-08-15T08:34:38Z</time>
      </trkpt>
      <trkpt lat="48.38884" lon="2.75468">
        <ele>87.14</ele>
        <time>2014-08-15T08:34:55Z</time>
      </trkpt>
      <trkpt lat="48.3887" lon="2.75465">
        <ele>90.98</ele>
        <time>2014-08-15T08:35:07Z</time>
      </trkpt>
      <trkpt lat="48.38847" lon="2.7547">
        <ele>91.94</ele>
        <time>2014-08-15T08:35:21Z</time>
      </trkpt>
      <trkpt lat="48.38835" lon="2.75467">
        <ele>92.9</ele>
        <time>2014-08-15T08:35:30Z</time>
      </trkpt>
      <trkpt lat="48.38812" lon="2.75464">
        <ele>94.35</ele>
        <time>2014-08-15T08:35:45Z</time>
      </trkpt>
      <trkpt lat="48.38791" lon="2.75465">
        <ele>97.71</ele>
        <time>2014-08-15T08:35:58Z</time>
      </trkpt>
      <trkpt lat="48.38772" lon="2.75461">
        <ele>98.67</ele>
        <time>2014-08-15T08:36:10Z</time>
      </trkpt>
      <trkpt lat="48.38757" lon="2.7546">
        <ele>100.6</ele>
        <time>2014-08-15T08:36:23Z</time>
      </trkpt>
      <trkpt lat="48.38738" lon="2.75456">
        <ele>103</ele>
        <time>2014-08-15T08:36:37Z</time>
      </trkpt>
      <trkpt lat="48.38724" lon="2.7545">
        <ele>101.56</ele>
        <time>2014-08-15T08:36:50Z</time>
      </trkpt>
      <trkpt lat="48.38707" lon="2.75453">
        <ele>103.48</ele>
        <time>2014-08-15T08:37:04Z</time>
      </trkpt>
      <trkpt lat="48.38694" lon="2.75451">
        <ele>102.52</ele>
        <time>2014-08-15T08:37:18Z</time>
      </trkpt>
      <trkpt lat="48.38679" lon="2.7545">
        <ele>102.52</ele>
        <time>2014-08-15T08:37:31Z</time>
      </trkpt>
      <trkpt lat="48.38664" lon="2.75448">
        <ele>101.56</ele>
        <time>2014-08-15T08:37:45Z</time>
      </trkpt>
      <trkpt lat="48.38645" lon="2.75445">
        <ele>103.96</ele>
        <time>2014-08-15T08:37:58Z</time>
      </trkpt>
      <trkpt lat="48.38631" lon="2.75445">
        <ele>104.44</ele>
        <time>2014-08-15T08:38:11Z</time>
      </trkpt>
      <trkpt lat="48.38608" lon="2.75445">
        <ele>104.92</ele>
        <time>2014-08-15T08:38:25Z</time>
      </trkpt>
      <trkpt lat="48.38593" lon="2.75442">
        <ele>104.92</ele>
        <time>2014-08-15T08:38:38Z</time>
      </trkpt>
      <trkpt lat="48.38587" lon="2.7544">
        <ele>104.44</ele>
        <time>2014-08-15T08:38:43Z</time>
      </trkpt>
      <trkpt lat="48.38568" lon="2.75434">
        <ele>102.04</ele>
        <time>2014-08-15T08:38:58Z</time>
      </trkpt>
      <trkpt lat="48.38552" lon="2.75433">
        <ele>100.11</ele>
        <time>2014-08-15T08:39:11Z</time>
      </trkpt>
      <trkpt lat="48.3853" lon="2.75432">
        <ele>100.6</ele>
        <time>2014-08-15T08:39:25Z</time>
      </trkpt>
      <trkpt lat="48.38515" lon="2.75431">
        <ele>101.56</ele>
        <time>2014-08-15T08:39:41Z</time>
      </trkpt>
      <trkpt lat="48.38499" lon="2.75428">
        <ele>103</ele>
        <time>2014-08-15T08:39:56Z</time>
      </trkpt>
      <trkpt lat="48.38482" lon="2.75424">
        <ele>100.11</ele>
        <time>2014-08-15T08:40:09Z</time>
      </trkpt>
      <trkpt lat="48.38464" lon="2.7542">
        <ele>102.52</ele>
        <time>2014-08-15T08:40:25Z</time>
      </trkpt>
      <trkpt lat="48.38451" lon="2.75414">
        <ele>102.52</ele>
        <time>2014-08-15T08:40:38Z</time>
      </trkpt>
      <trkpt lat="48.38423" lon="2.75412">
        <ele>105.88</ele>
        <time>2014-08-15T08:40:53Z</time>
      </trkpt>
      <trkpt lat="48.38403" lon="2.75409">
        <ele>105.88</ele>
        <time>2014-08-15T08:41:08Z</time>
      </trkpt>
      <trkpt lat="48.384" lon="2.75408">
        <ele>105.4</ele>
        <time>2014-08-15T08:41:10Z</time>
      </trkpt>
      <trkpt lat="48.3838" lon="2.75401">
        <ele>104.92</ele>
        <time>2014-08-15T08:41:28Z</time>
      </trkpt>
      <trkpt lat="48.38363" lon="2.75397">
        <ele>106.84</ele>
        <time>2014-08-15T08:41:40Z</time>
      </trkpt>
      <trkpt lat="48.38354" lon="2.75389">
        <ele>106.36</ele>
        <time>2014-08-15T08:41:51Z</time>
      </trkpt>
      <trkpt lat="48.38347" lon="2.75386">
        <ele>107.32</ele>
        <time>2014-08-15T08:41:57Z</time>
      </trkpt>
      <trkpt lat="48.38338" lon="2.75391">
        <ele>108.29</ele>
        <time>2014-08-15T08:42:01Z</time>
      </trkpt>
      <trkpt lat="48.38319" lon="2.75387">
        <ele>104.44</ele>
        <time>2014-08-15T08:42:15Z</time>
      </trkpt>
      <trkpt lat="48.38304" lon="2.75385">
        <ele>103</ele>
        <time>2014-08-15T08:42:26Z</time>
      </trkpt>
      <trkpt lat="48.38298" lon="2.7538">
        <ele>101.56</ele>
        <time>2014-08-15T08:42:37Z</time>
      </trkpt>
      <trkpt lat="48.38282" lon="2.75379">
        <ele>100.6</ele>
        <time>2014-08-15T08:42:52Z</time>
      </trkpt>
      <trkpt lat="48.38267" lon="2.75368">
        <ele>95.31</ele>
        <time>2014-08-15T08:43:06Z</time>
      </trkpt>
      <trkpt lat="48.38263" lon="2.75364">
        <ele>93.87</ele>
        <time>2014-08-15T08:43:12Z</time>
      </trkpt>
      <trkpt lat="48.38249" lon="2.75361">
        <ele>92.9</ele>
        <time>2014-08-15T08:43:24Z</time>
      </trkpt>
      <trkpt lat="48.38224" lon="2.75363">
        <ele>90.98</ele>
        <time>2014-08-15T08:43:37Z</time>
      </trkpt>
      <trkpt lat="48.38208" lon="2.75361">
        <ele>87.62</ele>
        <time>2014-08-15T08:43:52Z</time>
      </trkpt>
      <trkpt lat="48.38202" lon="2.75361">
        <ele>86.18</ele>
        <time>2014-08-15T08:44:02Z</time>
      </trkpt>
      <trkpt lat="48.38198" lon="2.75365">
        <ele>87.62</ele>
        <time>2014-08-15T08:44:07Z</time>
      </trkpt>
      <trkpt lat="48.38188" lon="2.75384">
        <ele>87.62</ele>
        <time>2014-08-15T08:44:23Z</time>
      </trkpt>
      <trkpt lat="48.38182" lon="2.75408">
        <ele>90.02</ele>
        <time>2014-08-15T08:44:39Z</time>
      </trkpt>
      <trkpt lat="48.38168" lon="2.75446">
        <ele>91.46</ele>
        <time>2014-08-15T08:44:58Z</time>
      </trkpt>
      <trkpt lat="48.38167" lon="2.7547">
        <ele>90.5</ele>
        <time>2014-08-15T08:45:12Z</time>
      </trkpt>
      <trkpt lat="48.38163" lon="2.75503">
        <ele>93.39</ele>
        <time>2014-08-15T08:45:30Z</time>
      </trkpt>
      <trkpt lat="48.38161" lon="2.7551">
        <ele>93.39</ele>
        <time>2014-08-15T08:45:33Z</time>
      </trkpt>
      <trkpt lat="48.38151" lon="2.75545">
        <ele>96.27</ele>
        <time>2014-08-15T08:45:47Z</time>
      </trkpt>
      <trkpt lat="48.38147" lon="2.75567">
        <ele>98.67</ele>
        <time>2014-08-15T08:45:58Z</time>
      </trkpt>
      <trkpt lat="48.38146" lon="2.7557">
        <ele>99.15</ele>
        <time>2014-08-15T08:45:59Z</time>
      </trkpt>
      <trkpt lat="48.38143" lon="2.75579">
        <ele>99.15</ele>
        <time>2014-08-15T08:46:03Z</time>
      </trkpt>
      <trkpt lat="48.38142" lon="2.75583">
        <ele>99.63</ele>
        <time>2014-08-15T08:46:05Z</time>
      </trkpt>
      <trkpt lat="48.38142" lon="2.75604">
        <ele>99.63</ele>
        <time>2014-08-15T08:46:19Z</time>
      </trkpt>
      <trkpt lat="48.38141" lon="2.75623">
        <ele>97.23</ele>
        <time>2014-08-15T08:46:32Z</time>
      </trkpt>
      <trkpt lat="48.38139" lon="2.75646">
        <ele>96.27</ele>
        <time>2014-08-15T08:46:45Z</time>
      </trkpt>
      <trkpt lat="48.38138" lon="2.75673">
        <ele>96.27</ele>
        <time>2014-08-15T08:46:58Z</time>
      </trkpt>
      <trkpt lat="48.38141" lon="2.75685">
        <ele>95.31</ele>
        <time>2014-08-15T08:47:09Z</time>
      </trkpt>
      <trkpt lat="48.3814" lon="2.75693">
        <ele>95.31</ele>
        <time>2014-08-15T08:47:12Z</time>
      </trkpt>
      <trkpt lat="48.38141" lon="2.75698">
        <ele>95.79</ele>
        <time>2014-08-15T08:47:14Z</time>
      </trkpt>
      <trkpt lat="48.38137" lon="2.75727">
        <ele>99.63</ele>
        <time>2014-08-15T08:47:28Z</time>
      </trkpt>
      <trkpt lat="48.38127" lon="2.75756">
        <ele>105.4</ele>
        <time>2014-08-15T08:47:42Z</time>
      </trkpt>
      <trkpt lat="48.38124" lon="2.75763">
        <ele>107.81</ele>
        <time>2014-08-15T08:47:48Z</time>
      </trkpt>
      <trkpt lat="48.38125" lon="2.75788">
        <ele>111.65</ele>
        <time>2014-08-15T08:48:03Z</time>
      </trkpt>
      <trkpt lat="48.38123" lon="2.75811">
        <ele>110.21</ele>
        <time>2014-08-15T08:48:15Z</time>
      </trkpt>
      <trkpt lat="48.38117" lon="2.75822">
        <ele>110.21</ele>
        <time>2014-08-15T08:48:22Z</time>
      </trkpt>
      <trkpt lat="48.38109" lon="2.7584">
        <ele>108.77</ele>
        <time>2014-08-15T08:48:32Z</time>
      </trkpt>
      <trkpt lat="48.38107" lon="2.75865">
        <ele>109.73</ele>
        <time>2014-08-15T08:48:46Z</time>
      </trkpt>
      <trkpt lat="48.38104" lon="2.7588">
        <ele>108.29</ele>
        <time>2014-08-15T08:49:02Z</time>
      </trkpt>
      <trkpt lat="48.38099" lon="2.75907">
        <ele>107.32</ele>
        <time>2014-08-15T08:49:17Z</time>
      </trkpt>
      <trkpt lat="48.38093" lon="2.75924">
        <ele>105.88</ele>
        <time>2014-08-15T08:49:34Z</time>
      </trkpt>
      <trkpt lat="48.38091" lon="2.75932">
        <ele>102.52</ele>
        <time>2014-08-15T08:49:58Z</time>
      </trkpt>
      <trkpt lat="48.38095" lon="2.75941">
        <ele>93.39</ele>
        <time>2014-08-15T08:50:22Z</time>
      </trkpt>
      <trkpt lat="48.38098" lon="2.75948">
        <ele>92.42</ele>
        <time>2014-08-15T08:50:43Z</time>
      </trkpt>
      <trkpt lat="48.38094" lon="2.75973">
        <ele>90.5</ele>
        <time>2014-08-15T08:50:57Z</time>
      </trkpt>
      <trkpt lat="48.3809" lon="2.76004">
        <ele>87.14</ele>
        <time>2014-08-15T08:51:14Z</time>
      </trkpt>
      <trkpt lat="48.38087" lon="2.76026">
        <ele>86.66</ele>
        <time>2014-08-15T08:51:29Z</time>
      </trkpt>
      <trkpt lat="48.38086" lon="2.76048">
        <ele>85.21</ele>
        <time>2014-08-15T08:51:42Z</time>
      </trkpt>
      <trkpt lat="48.38083" lon="2.7608">
        <ele>80.41</ele>
        <time>2014-08-15T08:51:55Z</time>
      </trkpt>
      <trkpt lat="48.38079" lon="2.76112">
        <ele>81.85</ele>
        <time>2014-08-15T08:52:10Z</time>
      </trkpt>
      <trkpt lat="48.38075" lon="2.7614">
        <ele>79.45</ele>
        <time>2014-08-15T08:52:25Z</time>
      </trkpt>
      <trkpt lat="48.38077" lon="2.76164">
        <ele>81.37</ele>
        <time>2014-08-15T08:52:39Z</time>
      </trkpt>
      <trkpt lat="48.38076" lon="2.7617">
        <ele>81.37</ele>
        <time>2014-08-15T08:52:43Z</time>
      </trkpt>
      <trkpt lat="48.38075" lon="2.76183">
        <ele>79.93</ele>
        <time>2014-08-15T08:52:52Z</time>
      </trkpt>
      <trkpt lat="48.38071" lon="2.76215">
        <ele>77.04</ele>
        <time>2014-08-15T08:53:12Z</time>
      </trkpt>
      <trkpt lat="48.38072" lon="2.76233">
        <ele>76.08</ele>
        <time>2014-08-15T08:53:28Z</time>
      </trkpt>
      <trkpt lat="48.38065" lon="2.76252">
        <ele>78.97</ele>
        <time>2014-08-15T08:53:44Z</time>
      </trkpt>
      <trkpt lat="48.38058" lon="2.76281">
        <ele>81.37</ele>
        <time>2014-08-15T08:53:59Z</time>
      </trkpt>
      <trkpt lat="48.38052" lon="2.76306">
        <ele>82.33</ele>
        <time>2014-08-15T08:54:14Z</time>
      </trkpt>
      <trkpt lat="48.3805" lon="2.76322">
        <ele>80.89</ele>
        <time>2014-08-15T08:54:29Z</time>
      </trkpt>
      <trkpt lat="48.38049" lon="2.76347">
        <ele>77.52</ele>
        <time>2014-08-15T08:54:44Z</time>
      </trkpt>
      <trkpt lat="48.38047" lon="2.76368">
        <ele>79.93</ele>
        <time>2014-08-15T08:54:58Z</time>
      </trkpt>
      <trkpt lat="48.38046" lon="2.76388">
        <ele>82.81</ele>
        <time>2014-08-15T08:55:08Z</time>
      </trkpt>
      <trkpt lat="48.38039" lon="2.76409">
        <ele>84.73</ele>
        <time>2014-08-15T08:55:21Z</time>
      </trkpt>
      <trkpt lat="48.38036" lon="2.76424">
        <ele>87.14</ele>
        <time>2014-08-15T08:55:31Z</time>
      </trkpt>
      <trkpt lat="48.38036" lon="2.76444">
        <ele>87.62</ele>
        <time>2014-08-15T08:55:41Z</time>
      </trkpt>
      <trkpt lat="48.38034" lon="2.76448">
        <ele>88.1</ele>
        <time>2014-08-15T08:55:43Z</time>
      </trkpt>
      <trkpt lat="48.3803" lon="2.76479">
        <ele>92.9</ele>
        <time>2014-08-15T08:55:59Z</time>
      </trkpt>
      <trkpt lat="48.38021" lon="2.76509">
        <ele>95.31</ele>
        <time>2014-08-15T08:56:14Z</time>
      </trkpt>
      <trkpt lat="48.38011" lon="2.76538">
        <ele>103.96</ele>
        <time>2014-08-15T08:56:32Z</time>
      </trkpt>
      <trkpt lat="48.38013" lon="2.7656">
        <ele>105.4</ele>
        <time>2014-08-15T08:56:43Z</time>
      </trkpt>
      <trkpt lat="48.38008" lon="2.76593">
        <ele>106.84</ele>
        <time>2014-08-15T08:57:01Z</time>
      </trkpt>
      <trkpt lat="48.38006" lon="2.76618">
        <ele>105.88</ele>
        <time>2014-08-15T08:57:16Z</time>
      </trkpt>
      <trkpt lat="48.38003" lon="2.76654">
        <ele>99.63</ele>
        <time>2014-08-15T08:57:34Z</time>
      </trkpt>
      <trkpt lat="48.38" lon="2.76692">
        <ele>94.35</ele>
        <time>2014-08-15T08:57:51Z</time>
      </trkpt>
      <trkpt lat="48.37999" lon="2.7672">
        <ele>91.94</ele>
        <time>2014-08-15T08:58:08Z</time>
      </trkpt>
      <trkpt lat="48.37994" lon="2.76755">
        <ele>93.39</ele>
        <time>2014-08-15T08:58:27Z</time>
      </trkpt>
      <trkpt lat="48.37989" lon="2.76788">
        <ele>94.83</ele>
        <time>2014-08-15T08:58:44Z</time>
      </trkpt>
      <trkpt lat="48.37986" lon="2.76817">
        <ele>97.23</ele>
        <time>2014-08-15T08:58:59Z</time>
      </trkpt>
      <trkpt lat="48.3798" lon="2.76852">
        <ele>94.35</ele>
        <time>2014-08-15T08:59:16Z</time>
      </trkpt>
      <trkpt lat="48.37978" lon="2.76879">
        <ele>93.39</ele>
        <time>2014-08-15T08:59:30Z</time>
      </trkpt>
      <trkpt lat="48.37973" lon="2.76905">
        <ele>90.02</ele>
        <time>2014-08-15T08:59:47Z</time>
      </trkpt>
      <trkpt lat="48.3797" lon="2.7693">
        <ele>89.54</ele>
        <time>2014-08-15T09:00:02Z</time>
      </trkpt>
      <trkpt lat="48.37964" lon="2.76956">
        <ele>88.1</ele>
        <time>2014-08-15T09:00:16Z</time>
      </trkpt>
      <trkpt lat="48.37959" lon="2.76986">
        <ele>89.54</ele>
        <time>2014-08-15T09:00:29Z</time>
      </trkpt>
      <trkpt lat="48.37955" lon="2.77014">
        <ele>92.9</ele>
        <time>2014-08-15T09:00:43Z</time>
      </trkpt>
      <trkpt lat="48.37954" lon="2.77024">
        <ele>94.35</ele>
        <time>2014-08-15T09:00:49Z</time>
      </trkpt>
      <trkpt lat="48.3795" lon="2.77048">
        <ele>97.23</ele>
        <time>2014-08-15T09:01:07Z</time>
      </trkpt>
      <trkpt lat="48.37945" lon="2.77078">
        <ele>102.04</ele>
        <time>2014-08-15T09:01:21Z</time>
      </trkpt>
      <trkpt lat="48.37944" lon="2.7711">
        <ele>101.56</ele>
        <time>2014-08-15T09:01:38Z</time>
      </trkpt>
      <trkpt lat="48.37942" lon="2.77124">
        <ele>101.56</ele>
        <time>2014-08-15T09:01:49Z</time>
      </trkpt>
      <trkpt lat="48.3794" lon="2.77131">
        <ele>101.56</ele>
        <time>2014-08-15T09:01:54Z</time>
      </trkpt>
      <trkpt lat="48.37934" lon="2.77166">
        <ele>101.08</ele>
        <time>2014-08-15T09:02:15Z</time>
      </trkpt>
      <trkpt lat="48.3793" lon="2.77191">
        <ele>100.6</ele>
        <time>2014-08-15T09:02:28Z</time>
      </trkpt>
      <trkpt lat="48.3793" lon="2.77199">
        <ele>100.6</ele>
        <time>2014-08-15T09:02:32Z</time>
      </trkpt>
      <trkpt lat="48.37926" lon="2.77232">
        <ele>99.63</ele>
        <time>2014-08-15T09:02:51Z</time>
      </trkpt>
      <trkpt lat="48.37918" lon="2.77265">
        <ele>98.19</ele>
        <time>2014-08-15T09:03:09Z</time>
      </trkpt>
      <trkpt lat="48.3792" lon="2.77282">
        <ele>99.63</ele>
        <time>2014-08-15T09:03:23Z</time>
      </trkpt>
      <trkpt lat="48.37902" lon="2.77282">
        <ele>99.63</ele>
        <time>2014-08-15T09:03:37Z</time>
      </trkpt>
      <trkpt lat="48.37883" lon="2.77278">
        <ele>97.23</ele>
        <time>2014-08-15T09:03:52Z</time>
      </trkpt>
      <trkpt lat="48.37866" lon="2.77278">
        <ele>96.75</ele>
        <time>2014-08-15T09:04:06Z</time>
      </trkpt>
      <trkpt lat="48.37852" lon="2.77274">
        <ele>99.63</ele>
        <time>2014-08-15T09:04:26Z</time>
      </trkpt>
      <trkpt lat="48.3785" lon="2.77271">
        <ele>100.11</ele>
        <time>2014-08-15T09:04:29Z</time>
      </trkpt>
      <trkpt lat="48.37833" lon="2.77247">
        <ele>101.08</ele>
        <time>2014-08-15T09:04:45Z</time>
      </trkpt>
      <trkpt lat="48.37822" lon="2.77233">
        <ele>104.44</ele>
        <time>2014-08-15T09:05:00Z</time>
      </trkpt>
      <trkpt lat="48.37807" lon="2.77221">
        <ele>108.29</ele>
        <time>2014-08-15T09:05:15Z</time>
      </trkpt>
      <trkpt lat="48.37791" lon="2.7723">
        <ele>110.21</ele>
        <time>2014-08-15T09:05:28Z</time>
      </trkpt>
      <trkpt lat="48.37775" lon="2.77247">
        <ele>113.09</ele>
        <time>2014-08-15T09:05:44Z</time>
      </trkpt>
      <trkpt lat="48.37774" lon="2.77248">
        <ele>113.57</ele>
        <time>2014-08-15T09:05:45Z</time>
      </trkpt>
      <trkpt lat="48.37768" lon="2.77255">
        <ele>115.01</ele>
        <time>2014-08-15T09:05:50Z</time>
      </trkpt>
      <trkpt lat="48.37753" lon="2.77267">
        <ele>118.38</ele>
        <time>2014-08-15T09:06:05Z</time>
      </trkpt>
      <trkpt lat="48.3775" lon="2.77265">
        <ele>118.86</ele>
        <time>2014-08-15T09:06:09Z</time>
      </trkpt>
      <trkpt lat="48.37733" lon="2.77264">
        <ele>121.74</ele>
        <time>2014-08-15T09:06:24Z</time>
      </trkpt>
      <trkpt lat="48.37713" lon="2.77267">
        <ele>119.34</ele>
        <time>2014-08-15T09:06:40Z</time>
      </trkpt>
      <trkpt lat="48.37701" lon="2.77269">
        <ele>117.9</ele>
        <time>2014-08-15T09:06:56Z</time>
      </trkpt>
      <trkpt lat="48.37692" lon="2.77269">
        <ele>117.9</ele>
        <time>2014-08-15T09:07:12Z</time>
      </trkpt>
      <trkpt lat="48.37689" lon="2.77269">
        <ele>117.42</ele>
        <time>2014-08-15T09:07:27Z</time>
      </trkpt>
      <trkpt lat="48.37672" lon="2.77264">
        <ele>117.9</ele>
        <time>2014-08-15T09:07:42Z</time>
      </trkpt>
      <trkpt lat="48.37657" lon="2.77266">
        <ele>117.42</ele>
        <time>2014-08-15T09:07:56Z</time>
      </trkpt>
      <trkpt lat="48.37636" lon="2.7726">
        <ele>115.01</ele>
        <time>2014-08-15T09:08:12Z</time>
      </trkpt>
      <trkpt lat="48.37616" lon="2.77261">
        <ele>110.69</ele>
        <time>2014-08-15T09:08:25Z</time>
      </trkpt>
      <trkpt lat="48.37605" lon="2.77257">
        <ele>103.96</ele>
        <time>2014-08-15T09:08:37Z</time>
      </trkpt>
      <trkpt lat="48.37588" lon="2.77255">
        <ele>100.6</ele>
        <time>2014-08-15T09:08:53Z</time>
      </trkpt>
      <trkpt lat="48.37572" lon="2.77255">
        <ele>100.6</ele>
        <time>2014-08-15T09:09:09Z</time>
      </trkpt>
      <trkpt lat="48.3755" lon="2.77251">
        <ele>99.15</ele>
        <time>2014-08-15T09:09:30Z</time>
      </trkpt>
      <trkpt lat="48.37534" lon="2.77249">
        <ele>98.67</ele>
        <time>2014-08-15T09:09:46Z</time>
      </trkpt>
      <trkpt lat="48.37514" lon="2.77245">
        <ele>97.23</ele>
        <time>2014-08-15T09:10:01Z</time>
      </trkpt>
      <trkpt lat="48.37488" lon="2.77249">
        <ele>94.35</ele>
        <time>2014-08-15T09:10:17Z</time>
      </trkpt>
      <trkpt lat="48.37464" lon="2.77247">
        <ele>94.83</ele>
        <time>2014-08-15T09:10:33Z</time>
      </trkpt>
      <trkpt lat="48.37453" lon="2.77245">
        <ele>93.39</ele>
        <time>2014-08-15T09:10:40Z</time>
      </trkpt>
      <trkpt lat="48.37447" lon="2.77245">
        <ele>92.42</ele>
        <time>2014-08-15T09:10:46Z</time>
      </trkpt>
      <trkpt lat="48.37434" lon="2.77238">
        <ele>90.5</ele>
        <time>2014-08-15T09:10:59Z</time>
      </trkpt>
      <trkpt lat="48.37429" lon="2.77236">
        <ele>90.02</ele>
        <time>2014-08-15T09:11:04Z</time>
      </trkpt>
      <trkpt lat="48.37418" lon="2.77234">
        <ele>89.06</ele>
        <time>2014-08-15T09:11:18Z</time>
      </trkpt>
      <trkpt lat="48.37403" lon="2.77234">
        <ele>90.02</ele>
        <time>2014-08-15T09:11:33Z</time>
      </trkpt>
      <trkpt lat="48.3739" lon="2.77232">
        <ele>90.5</ele>
        <time>2014-08-15T09:11:48Z</time>
      </trkpt>
      <trkpt lat="48.37372" lon="2.77233">
        <ele>90.5</ele>
        <time>2014-08-15T09:12:03Z</time>
      </trkpt>
      <trkpt lat="48.37366" lon="2.77234">
        <ele>90.02</ele>
        <time>2014-08-15T09:12:07Z</time>
      </trkpt>
      <trkpt lat="48.37354" lon="2.77233">
        <ele>88.58</ele>
        <time>2014-08-15T09:12:16Z</time>
      </trkpt>
      <trkpt lat="48.37342" lon="2.77226">
        <ele>88.58</ele>
        <time>2014-08-15T09:12:31Z</time>
      </trkpt>
      <trkpt lat="48.37314" lon="2.77227">
        <ele>88.58</ele>
        <time>2014-08-15T09:12:47Z</time>
      </trkpt>
      <trkpt lat="48.37302" lon="2.77226">
        <ele>90.98</ele>
        <time>2014-08-15T09:13:11Z</time>
      </trkpt>
      <trkpt lat="48.37292" lon="2.77224">
        <ele>91.94</ele>
        <time>2014-08-15T09:13:30Z</time>
      </trkpt>
      <trkpt lat="48.37273" lon="2.77223">
        <ele>93.87</ele>
        <time>2014-08-15T09:13:50Z</time>
      </trkpt>
      <trkpt lat="48.37251" lon="2.7722">
        <ele>95.31</ele>
        <time>2014-08-15T09:14:09Z</time>
      </trkpt>
      <trkpt lat="48.37233" lon="2.77217">
        <ele>97.71</ele>
        <time>2014-08-15T09:14:26Z</time>
      </trkpt>
      <trkpt lat="48.37208" lon="2.77219">
        <ele>98.67</ele>
        <time>2014-08-15T09:14:43Z</time>
      </trkpt>
      <trkpt lat="48.37191" lon="2.77217">
        <ele>98.19</ele>
        <time>2014-08-15T09:14:58Z</time>
      </trkpt>
      <trkpt lat="48.37173" lon="2.77213">
        <ele>100.6</ele>
        <time>2014-08-15T09:15:13Z</time>
      </trkpt>
      <trkpt lat="48.37147" lon="2.77216">
        <ele>101.08</ele>
        <time>2014-08-15T09:15:32Z</time>
      </trkpt>
      <trkpt lat="48.37126" lon="2.77216">
        <ele>101.56</ele>
        <time>2014-08-15T09:15:49Z</time>
      </trkpt>
      <trkpt lat="48.37105" lon="2.77212">
        <ele>99.63</ele>
        <time>2014-08-15T09:16:05Z</time>
      </trkpt>
      <trkpt lat="48.37084" lon="2.77208">
        <ele>97.23</ele>
        <time>2014-08-15T09:16:20Z</time>
      </trkpt>
      <trkpt lat="48.37068" lon="2.77209">
        <ele>96.75</ele>
        <time>2014-08-15T09:16:35Z</time>
      </trkpt>
      <trkpt lat="48.37053" lon="2.77206">
        <ele>95.79</ele>
        <time>2014-08-15T09:16:50Z</time>
      </trkpt>
      <trkpt lat="48.37051" lon="2.77205">
        <ele>95.79</ele>
        <time>2014-08-15T09:16:53Z</time>
      </trkpt>
      <trkpt lat="48.37049" lon="2.77205">
        <ele>95.79</ele>
        <time>2014-08-15T09:16:55Z</time>
      </trkpt>
      <trkpt lat="48.37035" lon="2.772">
        <ele>94.35</ele>
        <time>2014-08-15T09:17:10Z</time>
      </trkpt>
      <trkpt lat="48.37026" lon="2.77205">
        <ele>94.35</ele>
        <time>2014-08-15T09:17:17Z</time>
      </trkpt>
      <trkpt lat="48.37006" lon="2.77209">
        <ele>94.83</ele>
        <time>2014-08-15T09:17:28Z</time>
      </trkpt>
      <trkpt lat="48.36988" lon="2.77203">
        <ele>92.42</ele>
        <time>2014-08-15T09:17:43Z</time>
      </trkpt>
      <trkpt lat="48.36972" lon="2.77199">
        <ele>92.42</ele>
        <time>2014-08-15T09:17:58Z</time>
      </trkpt>
      <trkpt lat="48.36953" lon="2.77199">
        <ele>92.9</ele>
        <time>2014-08-15T09:18:14Z</time>
      </trkpt>
      <trkpt lat="48.36938" lon="2.77195">
        <ele>94.35</ele>
        <time>2014-08-15T09:18:31Z</time>
      </trkpt>
      <trkpt lat="48.36935" lon="2.77194">
        <ele>95.31</ele>
        <time>2014-08-15T09:18:35Z</time>
      </trkpt>
      <trkpt lat="48.36921" lon="2.77194">
        <ele>95.31</ele>
        <time>2014-08-15T09:18:50Z</time>
      </trkpt>
      <trkpt lat="48.36906" lon="2.77185">
        <ele>93.87</ele>
        <time>2014-08-15T09:19:04Z</time>
      </trkpt>
      <trkpt lat="48.36905" lon="2.77184">
        <ele>93.39</ele>
        <time>2014-08-15T09:19:05Z</time>
      </trkpt>
      <trkpt lat="48.36884" lon="2.77185">
        <ele>89.54</ele>
        <time>2014-08-15T09:19:22Z</time>
      </trkpt>
      <trkpt lat="48.36872" lon="2.77189">
        <ele>89.54</ele>
        <time>2014-08-15T09:19:35Z</time>
      </trkpt>
      <trkpt lat="48.36853" lon="2.77185">
        <ele>92.42</ele>
        <time>2014-08-15T09:19:49Z</time>
      </trkpt>
      <trkpt lat="48.36836" lon="2.77188">
        <ele>92.9</ele>
        <time>2014-08-15T09:20:04Z</time>
      </trkpt>
      <trkpt lat="48.36821" lon="2.77186">
        <ele>90.5</ele>
        <time>2014-08-15T09:20:18Z</time>
      </trkpt>
      <trkpt lat="48.36811" lon="2.77186">
        <ele>89.06</ele>
        <time>2014-08-15T09:20:41Z</time>
      </trkpt>
      <trkpt lat="48.36795" lon="2.77184">
        <ele>90.02</ele>
        <time>2014-08-15T09:20:57Z</time>
      </trkpt>
      <trkpt lat="48.36772" lon="2.7718">
        <ele>90.02</ele>
        <time>2014-08-15T09:21:12Z</time>
      </trkpt>
      <trkpt lat="48.36758" lon="2.77183">
        <ele>90.02</ele>
        <time>2014-08-15T09:21:21Z</time>
      </trkpt>
      <trkpt lat="48.36749" lon="2.77201">
        <ele>89.06</ele>
        <time>2014-08-15T09:21:32Z</time>
      </trkpt>
      <trkpt lat="48.36747" lon="2.77222">
        <ele>85.69</ele>
        <time>2014-08-15T09:21:45Z</time>
      </trkpt>
      <trkpt lat="48.36741" lon="2.7726">
        <ele>78.48</ele>
        <time>2014-08-15T09:22:06Z</time>
      </trkpt>
      <trkpt lat="48.3674" lon="2.77286">
        <ele>78.97</ele>
        <time>2014-08-15T09:22:21Z</time>
      </trkpt>
      <trkpt lat="48.36738" lon="2.77315">
        <ele>81.85</ele>
        <time>2014-08-15T09:22:37Z</time>
      </trkpt>
      <trkpt lat="48.36737" lon="2.77347">
        <ele>85.21</ele>
        <time>2014-08-15T09:22:55Z</time>
      </trkpt>
      <trkpt lat="48.36734" lon="2.7737">
        <ele>85.21</ele>
        <time>2014-08-15T09:23:08Z</time>
      </trkpt>
      <trkpt lat="48.36727" lon="2.774">
        <ele>82.81</ele>
        <time>2014-08-15T09:23:23Z</time>
      </trkpt>
      <trkpt lat="48.36725" lon="2.77431">
        <ele>83.77</ele>
        <time>2014-08-15T09:23:40Z</time>
      </trkpt>
      <trkpt lat="48.3672" lon="2.77454">
        <ele>87.62</ele>
        <time>2014-08-15T09:23:53Z</time>
      </trkpt>
      <trkpt lat="48.36715" lon="2.77486">
        <ele>90.02</ele>
        <time>2014-08-15T09:24:08Z</time>
      </trkpt>
      <trkpt lat="48.36712" lon="2.7752">
        <ele>92.9</ele>
        <time>2014-08-15T09:24:25Z</time>
      </trkpt>
      <trkpt lat="48.3671" lon="2.77541">
        <ele>96.27</ele>
        <time>2014-08-15T09:24:39Z</time>
      </trkpt>
      <trkpt lat="48.36703" lon="2.77568">
        <ele>101.56</ele>
        <time>2014-08-15T09:24:52Z</time>
      </trkpt>
      <trkpt lat="48.367" lon="2.77583">
        <ele>102.04</ele>
        <time>2014-08-15T09:24:59Z</time>
      </trkpt>
      <trkpt lat="48.36699" lon="2.7759">
        <ele>102.52</ele>
        <time>2014-08-15T09:25:03Z</time>
      </trkpt>
      <trkpt lat="48.36698" lon="2.776">
        <ele>103.96</ele>
        <time>2014-08-15T09:25:08Z</time>
      </trkpt>
      <trkpt lat="48.36697" lon="2.77609">
        <ele>104.92</ele>
        <time>2014-08-15T09:25:12Z</time>
      </trkpt>
      <trkpt lat="48.36694" lon="2.77633">
        <ele>99.63</ele>
        <time>2014-08-15T09:25:27Z</time>
      </trkpt>
      <trkpt lat="48.36683" lon="2.77634">
        <ele>94.83</ele>
        <time>2014-08-15T09:25:39Z</time>
      </trkpt>
      <trkpt lat="48.36672" lon="2.77632">
        <ele>93.39</ele>
        <time>2014-08-15T09:25:50Z</time>
      </trkpt>
      <trkpt lat="48.36667" lon="2.7763">
        <ele>93.39</ele>
        <time>2014-08-15T09:25:54Z</time>
      </trkpt>
      <trkpt lat="48.36657" lon="2.7763">
        <ele>94.83</ele>
        <time>2014-08-15T09:26:04Z</time>
      </trkpt>
      <trkpt lat="48.36641" lon="2.77625">
        <ele>93.39</ele>
        <time>2014-08-15T09:26:18Z</time>
      </trkpt>
      <trkpt lat="48.36618" lon="2.77628">
        <ele>93.39</ele>
        <time>2014-08-15T09:26:33Z</time>
      </trkpt>
      <trkpt lat="48.36601" lon="2.77627">
        <ele>91.46</ele>
        <time>2014-08-15T09:26:48Z</time>
      </trkpt>
      <trkpt lat="48.3659" lon="2.77625">
        <ele>89.54</ele>
        <time>2014-08-15T09:26:58Z</time>
      </trkpt>
      <trkpt lat="48.36575" lon="2.77622">
        <ele>89.54</ele>
        <time>2014-08-15T09:27:12Z</time>
      </trkpt>
      <trkpt lat="48.36553" lon="2.77609">
        <ele>88.1</ele>
        <time>2014-08-15T09:27:29Z</time>
      </trkpt>
      <trkpt lat="48.36538" lon="2.77607">
        <ele>90.02</ele>
        <time>2014-08-15T09:27:43Z</time>
      </trkpt>
      <trkpt lat="48.36527" lon="2.77611">
        <ele>90.02</ele>
        <time>2014-08-15T09:27:59Z</time>
      </trkpt>
      <trkpt lat="48.36505" lon="2.77614">
        <ele>87.62</ele>
        <time>2014-08-15T09:28:15Z</time>
      </trkpt>
      <trkpt lat="48.36492" lon="2.77615">
        <ele>86.66</ele>
        <time>2014-08-15T09:28:28Z</time>
      </trkpt>
      <trkpt lat="48.36489" lon="2.77615">
        <ele>86.66</ele>
        <time>2014-08-15T09:28:30Z</time>
      </trkpt>
      <trkpt lat="48.36475" lon="2.77613">
        <ele>84.73</ele>
        <time>2014-08-15T09:28:44Z</time>
      </trkpt>
      <trkpt lat="48.36456" lon="2.77608">
        <ele>83.77</ele>
        <time>2014-08-15T09:28:58Z</time>
      </trkpt>
      <trkpt lat="48.36439" lon="2.77609">
        <ele>83.29</ele>
        <time>2014-08-15T09:29:13Z</time>
      </trkpt>
      <trkpt lat="48.36438" lon="2.77609">
        <ele>83.29</ele>
        <time>2014-08-15T09:29:14Z</time>
      </trkpt>
      <trkpt lat="48.3643" lon="2.77609">
        <ele>82.33</ele>
        <time>2014-08-15T09:29:21Z</time>
      </trkpt>
      <trkpt lat="48.36411" lon="2.77607">
        <ele>80.89</ele>
        <time>2014-08-15T09:29:36Z</time>
      </trkpt>
      <trkpt lat="48.36396" lon="2.77608">
        <ele>79.93</ele>
        <time>2014-08-15T09:29:48Z</time>
      </trkpt>
      <trkpt lat="48.36378" lon="2.77603">
        <ele>77.52</ele>
        <time>2014-08-15T09:30:03Z</time>
      </trkpt>
      <trkpt lat="48.36362" lon="2.77597">
        <ele>77.52</ele>
        <time>2014-08-15T09:30:17Z</time>
      </trkpt>
      <trkpt lat="48.36358" lon="2.77596">
        <ele>77.04</ele>
        <time>2014-08-15T09:30:21Z</time>
      </trkpt>
      <trkpt lat="48.36345" lon="2.77594">
        <ele>75.12</ele>
        <time>2014-08-15T09:30:34Z</time>
      </trkpt>
      <trkpt lat="48.36341" lon="2.77594">
        <ele>74.16</ele>
        <time>2014-08-15T09:30:38Z</time>
      </trkpt>
      <trkpt lat="48.36325" lon="2.77591">
        <ele>73.68</ele>
        <time>2014-08-15T09:30:52Z</time>
      </trkpt>
      <trkpt lat="48.36304" lon="2.77587">
        <ele>74.16</ele>
        <time>2014-08-15T09:31:05Z</time>
      </trkpt>
      <trkpt lat="48.36282" lon="2.77585">
        <ele>71.76</ele>
        <time>2014-08-15T09:31:20Z</time>
      </trkpt>
      <trkpt lat="48.36262" lon="2.77583">
        <ele>70.31</ele>
        <time>2014-08-15T09:31:36Z</time>
      </trkpt>
      <trkpt lat="48.36243" lon="2.77577">
        <ele>69.35</ele>
        <time>2014-08-15T09:31:53Z</time>
      </trkpt>
      <trkpt lat="48.36231" lon="2.77575">
        <ele>69.35</ele>
        <time>2014-08-15T09:32:05Z</time>
      </trkpt>
      <trkpt lat="48.36233" lon="2.77578">
        <ele>69.35</ele>
        <time>2014-08-15T09:32:09Z</time>
      </trkpt>
      <trkpt lat="48.36237" lon="2.77578">
        <ele>69.83</ele>
        <time>2014-08-15T09:32:23Z</time>
      </trkpt>
      <trkpt lat="48.36236" lon="2.7758">
        <ele>70.31</ele>
        <time>2014-08-15T09:32:37Z</time>
      </trkpt>
      <trkpt lat="48.36215" lon="2.77579">
        <ele>69.83</ele>
        <time>2014-08-15T09:32:51Z</time>
      </trkpt>
      <trkpt lat="48.36206" lon="2.77576">
        <ele>68.39</ele>
        <time>2014-08-15T09:32:58Z</time>
      </trkpt>
      <trkpt lat="48.3619" lon="2.77577">
        <ele>67.91</ele>
        <time>2014-08-15T09:33:12Z</time>
      </trkpt>
      <trkpt lat="48.3617" lon="2.77574">
        <ele>67.43</ele>
        <time>2014-08-15T09:33:27Z</time>
      </trkpt>
      <trkpt lat="48.36157" lon="2.77576">
        <ele>65.51</ele>
        <time>2014-08-15T09:33:40Z</time>
      </trkpt>
      <trkpt lat="48.36145" lon="2.77575">
        <ele>66.95</ele>
        <time>2014-08-15T09:33:52Z</time>
      </trkpt>
      <trkpt lat="48.36132" lon="2.7757">
        <ele>65.03</ele>
        <time>2014-08-15T09:34:03Z</time>
      </trkpt>
      <trkpt lat="48.36123" lon="2.77566">
        <ele>64.55</ele>
        <time>2014-08-15T09:34:08Z</time>
      </trkpt>
      <trkpt lat="48.36107" lon="2.77566">
        <ele>65.03</ele>
        <time>2014-08-15T09:34:21Z</time>
      </trkpt>
      <trkpt lat="48.36086" lon="2.77567">
        <ele>64.55</ele>
        <time>2014-08-15T09:34:36Z</time>
      </trkpt>
      <trkpt lat="48.36079" lon="2.77565">
        <ele>64.55</ele>
        <time>2014-08-15T09:34:42Z</time>
      </trkpt>
      <trkpt lat="48.36064" lon="2.77567">
        <ele>66.47</ele>
        <time>2014-08-15T09:34:59Z</time>
      </trkpt>
      <trkpt lat="48.36055" lon="2.77566">
        <ele>67.43</ele>
        <time>2014-08-15T09:35:10Z</time>
      </trkpt>
      <trkpt lat="48.36046" lon="2.77564">
        <ele>67.43</ele>
        <time>2014-08-15T09:35:18Z</time>
      </trkpt>
      <trkpt lat="48.36032" lon="2.77564">
        <ele>65.99</ele>
        <time>2014-08-15T09:35:31Z</time>
      </trkpt>
      <trkpt lat="48.36025" lon="2.77558">
        <ele>66.47</ele>
        <time>2014-08-15T09:35:44Z</time>
      </trkpt>
      <trkpt lat="48.36022" lon="2.77556">
        <ele>66.95</ele>
        <time>2014-08-15T09:35:46Z</time>
      </trkpt>
      <trkpt lat="48.36011" lon="2.77558">
        <ele>67.91</ele>
        <time>2014-08-15T09:35:55Z</time>
      </trkpt>
      <trkpt lat="48.35991" lon="2.77556">
        <ele>71.76</ele>
        <time>2014-08-15T09:36:11Z</time>
      </trkpt>
      <trkpt lat="48.35975" lon="2.77555">
        <ele>69.83</ele>
        <time>2014-08-15T09:36:25Z</time>
      </trkpt>
      <trkpt lat="48.35966" lon="2.77557">
        <ele>67.43</ele>
        <time>2014-08-15T09:36:33Z</time>
      </trkpt>
      <trkpt lat="48.35948" lon="2.77556">
        <ele>69.35</ele>
        <time>2014-08-15T09:36:46Z</time>
      </trkpt>
      <trkpt lat="48.35941" lon="2.77554">
        <ele>70.31</ele>
        <time>2014-08-15T09:36:52Z</time>
      </trkpt>
      <trkpt lat="48.35919" lon="2.7755">
        <ele>70.79</ele>
        <time>2014-08-15T09:37:11Z</time>
      </trkpt>
      <trkpt lat="48.35898" lon="2.77547">
        <ele>69.83</ele>
        <time>2014-08-15T09:37:31Z</time>
      </trkpt>
      <trkpt lat="48.35872" lon="2.77544">
        <ele>72.24</ele>
        <time>2014-08-15T09:37:50Z</time>
      </trkpt>
      <trkpt lat="48.35852" lon="2.7754">
        <ele>69.83</ele>
        <time>2014-08-15T09:38:06Z</time>
      </trkpt>
      <trkpt lat="48.35829" lon="2.77538">
        <ele>68.87</ele>
        <time>2014-08-15T09:38:21Z</time>
      </trkpt>
      <trkpt lat="48.35826" lon="2.77534">
        <ele>69.35</ele>
        <time>2014-08-15T09:38:32Z</time>
      </trkpt>
      <trkpt lat="48.35818" lon="2.77536">
        <ele>67.91</ele>
        <time>2014-08-15T09:38:45Z</time>
      </trkpt>
      <trkpt lat="48.35816" lon="2.77538">
        <ele>67.43</ele>
        <time>2014-08-15T09:38:48Z</time>
      </trkpt>
      <trkpt lat="48.35808" lon="2.77538">
        <ele>65.51</ele>
        <time>2014-08-15T09:39:02Z</time>
      </trkpt>
      <trkpt lat="48.35797" lon="2.77536">
        <ele>67.43</ele>
        <time>2014-08-15T09:39:11Z</time>
      </trkpt>
      <trkpt lat="48.35784" lon="2.77533">
        <ele>67.43</ele>
        <time>2014-08-15T09:39:20Z</time>
      </trkpt>
      <trkpt lat="48.35779" lon="2.77532">
        <ele>67.91</ele>
        <time>2014-08-15T09:39:23Z</time>
      </trkpt>
      <trkpt lat="48.35763" lon="2.77532">
        <ele>69.35</ele>
        <time>2014-08-15T09:39:36Z</time>
      </trkpt>
      <trkpt lat="48.35753" lon="2.77534">
        <ele>72.24</ele>
        <time>2014-08-15T09:39:46Z</time>
      </trkpt>
      <trkpt lat="48.35746" lon="2.77533">
        <ele>73.68</ele>
        <time>2014-08-15T09:39:51Z</time>
      </trkpt>
      <trkpt lat="48.35738" lon="2.77534">
        <ele>74.64</ele>
        <time>2014-08-15T09:40:01Z</time>
      </trkpt>
      <trkpt lat="48.35725" lon="2.77533">
        <ele>73.68</ele>
        <time>2014-08-15T09:40:13Z</time>
      </trkpt>
      <trkpt lat="48.35707" lon="2.77528">
        <ele>72.72</ele>
        <time>2014-08-15T09:40:28Z</time>
      </trkpt>
      <trkpt lat="48.35699" lon="2.77526">
        <ele>72.72</ele>
        <time>2014-08-15T09:40:43Z</time>
      </trkpt>
      <trkpt lat="48.35693" lon="2.77527">
        <ele>72.72</ele>
        <time>2014-08-15T09:40:47Z</time>
      </trkpt>
      <trkpt lat="48.35689" lon="2.77526">
        <ele>72.72</ele>
        <time>2014-08-15T09:40:50Z</time>
      </trkpt>
      <trkpt lat="48.35684" lon="2.77525">
        <ele>73.2</ele>
        <time>2014-08-15T09:40:53Z</time>
      </trkpt>
      <trkpt lat="48.3567" lon="2.77524">
        <ele>75.12</ele>
        <time>2014-08-15T09:41:08Z</time>
      </trkpt>
      <trkpt lat="48.3565" lon="2.77519">
        <ele>76.08</ele>
        <time>2014-08-15T09:41:23Z</time>
      </trkpt>
      <trkpt lat="48.35636" lon="2.77521">
        <ele>77.04</ele>
        <time>2014-08-15T09:41:35Z</time>
      </trkpt>
      <trkpt lat="48.35616" lon="2.77516">
        <ele>78.97</ele>
        <time>2014-08-15T09:41:49Z</time>
      </trkpt>
      <trkpt lat="48.35599" lon="2.77515">
        <ele>78.48</ele>
        <time>2014-08-15T09:42:05Z</time>
      </trkpt>
      <trkpt lat="48.35584" lon="2.77516">
        <ele>77.52</ele>
        <time>2014-08-15T09:42:16Z</time>
      </trkpt>
      <trkpt lat="48.35577" lon="2.77515">
        <ele>78.48</ele>
        <time>2014-08-15T09:42:22Z</time>
      </trkpt>
      <trkpt lat="48.35571" lon="2.77514">
        <ele>78.48</ele>
        <time>2014-08-15T09:42:27Z</time>
      </trkpt>
      <trkpt lat="48.35552" lon="2.77514">
        <ele>78</ele>
        <time>2014-08-15T09:42:40Z</time>
      </trkpt>
      <trkpt lat="48.35549" lon="2.77515">
        <ele>78.48</ele>
        <time>2014-08-15T09:43:03Z</time>
      </trkpt>
      <trkpt lat="48.35543" lon="2.77514">
        <ele>77.52</ele>
        <time>2014-08-15T09:43:10Z</time>
      </trkpt>
      <trkpt lat="48.35537" lon="2.77514">
        <ele>78.48</ele>
        <time>2014-08-15T09:43:15Z</time>
      </trkpt>
      <trkpt lat="48.35519" lon="2.77513">
        <ele>78.48</ele>
        <time>2014-08-15T09:43:31Z</time>
      </trkpt>
      <trkpt lat="48.35501" lon="2.7751">
        <ele>78.97</ele>
        <time>2014-08-15T09:43:47Z</time>
      </trkpt>
      <trkpt lat="48.3548" lon="2.77507">
        <ele>78.48</ele>
        <time>2014-08-15T09:44:08Z</time>
      </trkpt>
      <trkpt lat="48.3544" lon="2.77504">
        <ele>102.04</ele>
        <time>2014-08-15T10:06:05Z</time>
      </trkpt>
      <trkpt lat="48.35435" lon="2.775">
        <ele>101.56</ele>
        <time>2014-08-15T10:06:34Z</time>
      </trkpt>
      <trkpt lat="48.35433" lon="2.77504">
        <ele>99.63</ele>
        <time>2014-08-15T10:07:01Z</time>
      </trkpt>
      <trkpt lat="48.35431" lon="2.77509">
        <ele>99.15</ele>
        <time>2014-08-15T10:07:27Z</time>
      </trkpt>
      <trkpt lat="48.35433" lon="2.77522">
        <ele>95.31</ele>
        <time>2014-08-15T10:07:47Z</time>
      </trkpt>
      <trkpt lat="48.35433" lon="2.77529">
        <ele>92.9</ele>
        <time>2014-08-15T10:08:00Z</time>
      </trkpt>
      <trkpt lat="48.35433" lon="2.77544">
        <ele>90.5</ele>
        <time>2014-08-15T10:08:12Z</time>
      </trkpt>
      <trkpt lat="48.35432" lon="2.77557">
        <ele>90.02</ele>
        <time>2014-08-15T10:08:20Z</time>
      </trkpt>
      <trkpt lat="48.35431" lon="2.77579">
        <ele>88.58</ele>
        <time>2014-08-15T10:08:36Z</time>
      </trkpt>
      <trkpt lat="48.35435" lon="2.7759">
        <ele>88.1</ele>
        <time>2014-08-15T10:08:56Z</time>
      </trkpt>
      <trkpt lat="48.35431" lon="2.77589">
        <ele>85.69</ele>
        <time>2014-08-15T10:09:24Z</time>
      </trkpt>
      <trkpt lat="48.3543" lon="2.77591">
        <ele>85.21</ele>
        <time>2014-08-15T10:09:26Z</time>
      </trkpt>
      <trkpt lat="48.35429" lon="2.77613">
        <ele>81.85</ele>
        <time>2014-08-15T10:09:39Z</time>
      </trkpt>
      <trkpt lat="48.35428" lon="2.77616">
        <ele>81.37</ele>
        <time>2014-08-15T10:09:40Z</time>
      </trkpt>
      <trkpt lat="48.35421" lon="2.7764">
        <ele>83.77</ele>
        <time>2014-08-15T10:09:55Z</time>
      </trkpt>
      <trkpt lat="48.35422" lon="2.77653">
        <ele>83.77</ele>
        <time>2014-08-15T10:10:06Z</time>
      </trkpt>
      <trkpt lat="48.35422" lon="2.77657">
        <ele>84.25</ele>
        <time>2014-08-15T10:10:09Z</time>
      </trkpt>
      <trkpt lat="48.35411" lon="2.77675">
        <ele>84.73</ele>
        <time>2014-08-15T10:10:23Z</time>
      </trkpt>
      <trkpt lat="48.35402" lon="2.77677">
        <ele>84.25</ele>
        <time>2014-08-15T10:10:37Z</time>
      </trkpt>
      <trkpt lat="48.35393" lon="2.7768">
        <ele>83.77</ele>
        <time>2014-08-15T10:10:43Z</time>
      </trkpt>
      <trkpt lat="48.35376" lon="2.77688">
        <ele>86.66</ele>
        <time>2014-08-15T10:10:57Z</time>
      </trkpt>
      <trkpt lat="48.35359" lon="2.77694">
        <ele>88.58</ele>
        <time>2014-08-15T10:11:12Z</time>
      </trkpt>
      <trkpt lat="48.35346" lon="2.777">
        <ele>90.5</ele>
        <time>2014-08-15T10:11:25Z</time>
      </trkpt>
      <trkpt lat="48.35337" lon="2.77703">
        <ele>92.9</ele>
        <time>2014-08-15T10:11:42Z</time>
      </trkpt>
      <trkpt lat="48.35332" lon="2.77704">
        <ele>93.87</ele>
        <time>2014-08-15T10:11:55Z</time>
      </trkpt>
      <trkpt lat="48.35326" lon="2.77707">
        <ele>95.31</ele>
        <time>2014-08-15T10:12:01Z</time>
      </trkpt>
      <trkpt lat="48.35314" lon="2.77712">
        <ele>97.71</ele>
        <time>2014-08-15T10:12:15Z</time>
      </trkpt>
      <trkpt lat="48.35307" lon="2.77718">
        <ele>100.6</ele>
        <time>2014-08-15T10:12:31Z</time>
      </trkpt>
      <trkpt lat="48.35306" lon="2.7772">
        <ele>100.6</ele>
        <time>2014-08-15T10:12:50Z</time>
      </trkpt>
      <trkpt lat="48.35302" lon="2.77726">
        <ele>100.6</ele>
        <time>2014-08-15T10:13:16Z</time>
      </trkpt>
      <trkpt lat="48.35291" lon="2.77739">
        <ele>99.15</ele>
        <time>2014-08-15T10:13:38Z</time>
      </trkpt>
      <trkpt lat="48.35287" lon="2.77739">
        <ele>100.11</ele>
        <time>2014-08-15T10:14:02Z</time>
      </trkpt>
      <trkpt lat="48.35274" lon="2.7774">
        <ele>99.63</ele>
        <time>2014-08-15T10:14:13Z</time>
      </trkpt>
      <trkpt lat="48.35256" lon="2.77746">
        <ele>98.19</ele>
        <time>2014-08-15T10:14:22Z</time>
      </trkpt>
      <trkpt lat="48.35242" lon="2.77753">
        <ele>97.23</ele>
        <time>2014-08-15T10:14:34Z</time>
      </trkpt>
      <trkpt lat="48.35242" lon="2.77754">
        <ele>97.23</ele>
        <time>2014-08-15T10:14:35Z</time>
      </trkpt>
      <trkpt lat="48.3523" lon="2.77762">
        <ele>96.27</ele>
        <time>2014-08-15T10:14:49Z</time>
      </trkpt>
      <trkpt lat="48.35214" lon="2.7777">
        <ele>95.31</ele>
        <time>2014-08-15T10:15:04Z</time>
      </trkpt>
      <trkpt lat="48.35207" lon="2.77772">
        <ele>95.31</ele>
        <time>2014-08-15T10:15:09Z</time>
      </trkpt>
      <trkpt lat="48.35202" lon="2.77776">
        <ele>94.83</ele>
        <time>2014-08-15T10:15:13Z</time>
      </trkpt>
      <trkpt lat="48.35182" lon="2.77785">
        <ele>92.42</ele>
        <time>2014-08-15T10:15:27Z</time>
      </trkpt>
      <trkpt lat="48.35168" lon="2.77792">
        <ele>90.5</ele>
        <time>2014-08-15T10:15:40Z</time>
      </trkpt>
      <trkpt lat="48.35153" lon="2.77801">
        <ele>91.94</ele>
        <time>2014-08-15T10:15:53Z</time>
      </trkpt>
      <trkpt lat="48.35138" lon="2.77802">
        <ele>93.87</ele>
        <time>2014-08-15T10:16:04Z</time>
      </trkpt>
      <trkpt lat="48.35133" lon="2.77813">
        <ele>98.19</ele>
        <time>2014-08-15T10:16:16Z</time>
      </trkpt>
      <trkpt lat="48.35131" lon="2.77816">
        <ele>100.6</ele>
        <time>2014-08-15T10:16:29Z</time>
      </trkpt>
      <trkpt lat="48.35125" lon="2.77813">
        <ele>97.23</ele>
        <time>2014-08-15T10:16:43Z</time>
      </trkpt>
      <trkpt lat="48.35119" lon="2.77815">
        <ele>94.83</ele>
        <time>2014-08-15T10:16:59Z</time>
      </trkpt>
      <trkpt lat="48.35119" lon="2.77818">
        <ele>91.94</ele>
        <time>2014-08-15T10:17:16Z</time>
      </trkpt>
      <trkpt lat="48.35115" lon="2.77822">
        <ele>90.5</ele>
        <time>2014-08-15T10:17:28Z</time>
      </trkpt>
      <trkpt lat="48.35102" lon="2.77829">
        <ele>89.54</ele>
        <time>2014-08-15T10:17:43Z</time>
      </trkpt>
      <trkpt lat="48.35091" lon="2.77832">
        <ele>87.62</ele>
        <time>2014-08-15T10:17:59Z</time>
      </trkpt>
      <trkpt lat="48.35071" lon="2.77843">
        <ele>87.62</ele>
        <time>2014-08-15T10:18:16Z</time>
      </trkpt>
      <trkpt lat="48.35062" lon="2.77848">
        <ele>84.25</ele>
        <time>2014-08-15T10:18:31Z</time>
      </trkpt>
      <trkpt lat="48.35062" lon="2.77851">
        <ele>84.73</ele>
        <time>2014-08-15T10:18:45Z</time>
      </trkpt>
      <trkpt lat="48.35058" lon="2.77847">
        <ele>85.69</ele>
        <time>2014-08-15T10:18:59Z</time>
      </trkpt>
      <trkpt lat="48.35051" lon="2.77836">
        <ele>85.21</ele>
        <time>2014-08-15T10:19:12Z</time>
      </trkpt>
      <trkpt lat="48.35049" lon="2.77821">
        <ele>83.77</ele>
        <time>2014-08-15T10:19:25Z</time>
      </trkpt>
      <trkpt lat="48.35043" lon="2.77809">
        <ele>87.14</ele>
        <time>2014-08-15T10:19:31Z</time>
      </trkpt>
      <trkpt lat="48.35039" lon="2.77787">
        <ele>90.98</ele>
        <time>2014-08-15T10:19:45Z</time>
      </trkpt>
      <trkpt lat="48.35038" lon="2.77777">
        <ele>88.1</ele>
        <time>2014-08-15T10:19:58Z</time>
      </trkpt>
      <trkpt lat="48.35034" lon="2.77759">
        <ele>81.85</ele>
        <time>2014-08-15T10:20:14Z</time>
      </trkpt>
      <trkpt lat="48.35024" lon="2.77723">
        <ele>82.33</ele>
        <time>2014-08-15T10:20:29Z</time>
      </trkpt>
      <trkpt lat="48.3502" lon="2.77706">
        <ele>79.45</ele>
        <time>2014-08-15T10:20:42Z</time>
      </trkpt>
      <trkpt lat="48.35005" lon="2.77675">
        <ele>79.93</ele>
        <time>2014-08-15T10:20:57Z</time>
      </trkpt>
      <trkpt lat="48.34997" lon="2.77656">
        <ele>80.89</ele>
        <time>2014-08-15T10:21:12Z</time>
      </trkpt>
      <trkpt lat="48.34988" lon="2.77632">
        <ele>82.33</ele>
        <time>2014-08-15T10:21:25Z</time>
      </trkpt>
      <trkpt lat="48.34984" lon="2.77612">
        <ele>83.29</ele>
        <time>2014-08-15T10:21:36Z</time>
      </trkpt>
      <trkpt lat="48.34982" lon="2.776">
        <ele>80.41</ele>
        <time>2014-08-15T10:21:50Z</time>
      </trkpt>
      <trkpt lat="48.34972" lon="2.77583">
        <ele>75.6</ele>
        <time>2014-08-15T10:22:04Z</time>
      </trkpt>
      <trkpt lat="48.34959" lon="2.7756">
        <ele>69.83</ele>
        <time>2014-08-15T10:22:16Z</time>
      </trkpt>
      <trkpt lat="48.34951" lon="2.77539">
        <ele>71.27</ele>
        <time>2014-08-15T10:22:26Z</time>
      </trkpt>
      <trkpt lat="48.34946" lon="2.77524">
        <ele>69.35</ele>
        <time>2014-08-15T10:22:42Z</time>
      </trkpt>
      <trkpt lat="48.3494" lon="2.77504">
        <ele>63.58</ele>
        <time>2014-08-15T10:22:57Z</time>
      </trkpt>
      <trkpt lat="48.34938" lon="2.77493">
        <ele>62.14</ele>
        <time>2014-08-15T10:23:04Z</time>
      </trkpt>
      <trkpt lat="48.34924" lon="2.77464">
        <ele>69.83</ele>
        <time>2014-08-15T10:23:19Z</time>
      </trkpt>
      <trkpt lat="48.34923" lon="2.7746">
        <ele>72.72</ele>
        <time>2014-08-15T10:23:22Z</time>
      </trkpt>
      <trkpt lat="48.34918" lon="2.77443">
        <ele>75.6</ele>
        <time>2014-08-15T10:23:30Z</time>
      </trkpt>
      <trkpt lat="48.34911" lon="2.77431">
        <ele>77.52</ele>
        <time>2014-08-15T10:23:43Z</time>
      </trkpt>
      <trkpt lat="48.34913" lon="2.77426">
        <ele>78.97</ele>
        <time>2014-08-15T10:23:54Z</time>
      </trkpt>
      <trkpt lat="48.34911" lon="2.77427">
        <ele>80.41</ele>
        <time>2014-08-15T10:24:03Z</time>
      </trkpt>
      <trkpt lat="48.34899" lon="2.77428">
        <ele>82.33</ele>
        <time>2014-08-15T10:24:14Z</time>
      </trkpt>
      <trkpt lat="48.34896" lon="2.77427">
        <ele>82.33</ele>
        <time>2014-08-15T10:24:32Z</time>
      </trkpt>
      <trkpt lat="48.34896" lon="2.77425">
        <ele>83.29</ele>
        <time>2014-08-15T10:25:02Z</time>
      </trkpt>
      <trkpt lat="48.34897" lon="2.77424">
        <ele>84.25</ele>
        <time>2014-08-15T10:25:31Z</time>
      </trkpt>
      <trkpt lat="48.349" lon="2.77427">
        <ele>88.58</ele>
        <time>2014-08-15T10:39:43Z</time>
      </trkpt>
      <trkpt lat="48.34893" lon="2.77428">
        <ele>88.1</ele>
        <time>2014-08-15T10:39:54Z</time>
      </trkpt>
      <trkpt lat="48.34879" lon="2.7743">
        <ele>85.69</ele>
        <time>2014-08-15T10:40:05Z</time>
      </trkpt>
      <trkpt lat="48.34876" lon="2.7743">
        <ele>85.69</ele>
        <time>2014-08-15T10:40:09Z</time>
      </trkpt>
      <trkpt lat="48.34861" lon="2.77432">
        <ele>86.18</ele>
        <time>2014-08-15T10:40:21Z</time>
      </trkpt>
      <trkpt lat="48.34844" lon="2.77431">
        <ele>85.69</ele>
        <time>2014-08-15T10:40:35Z</time>
      </trkpt>
      <trkpt lat="48.34829" lon="2.77432">
        <ele>87.14</ele>
        <time>2014-08-15T10:40:49Z</time>
      </trkpt>
      <trkpt lat="48.34824" lon="2.77434">
        <ele>85.69</ele>
        <time>2014-08-15T10:40:52Z</time>
      </trkpt>
      <trkpt lat="48.34814" lon="2.77436">
        <ele>86.66</ele>
        <time>2014-08-15T10:41:03Z</time>
      </trkpt>
      <trkpt lat="48.34807" lon="2.77437">
        <ele>88.58</ele>
        <time>2014-08-15T10:41:13Z</time>
      </trkpt>
      <trkpt lat="48.34797" lon="2.77434">
        <ele>92.42</ele>
        <time>2014-08-15T10:41:27Z</time>
      </trkpt>
      <trkpt lat="48.34773" lon="2.77438">
        <ele>92.42</ele>
        <time>2014-08-15T10:41:40Z</time>
      </trkpt>
      <trkpt lat="48.34759" lon="2.7744">
        <ele>90.98</ele>
        <time>2014-08-15T10:41:54Z</time>
      </trkpt>
      <trkpt lat="48.34749" lon="2.77445">
        <ele>89.06</ele>
        <time>2014-08-15T10:42:00Z</time>
      </trkpt>
      <trkpt lat="48.34731" lon="2.77448">
        <ele>79.45</ele>
        <time>2014-08-15T10:42:14Z</time>
      </trkpt>
      <trkpt lat="48.3473" lon="2.7745">
        <ele>79.45</ele>
        <time>2014-08-15T10:42:16Z</time>
      </trkpt>
      <trkpt lat="48.3472" lon="2.77454">
        <ele>78.97</ele>
        <time>2014-08-15T10:42:34Z</time>
      </trkpt>
      <trkpt lat="48.34714" lon="2.77479">
        <ele>78.48</ele>
        <time>2014-08-15T10:42:44Z</time>
      </trkpt>
      <trkpt lat="48.34708" lon="2.7748">
        <ele>77.04</ele>
        <time>2014-08-15T10:42:49Z</time>
      </trkpt>
      <trkpt lat="48.34698" lon="2.77471">
        <ele>76.08</ele>
        <time>2014-08-15T10:42:57Z</time>
      </trkpt>
      <trkpt lat="48.34688" lon="2.77469">
        <ele>73.68</ele>
        <time>2014-08-15T10:43:09Z</time>
      </trkpt>
      <trkpt lat="48.3468" lon="2.77465">
        <ele>73.68</ele>
        <time>2014-08-15T10:43:18Z</time>
      </trkpt>
      <trkpt lat="48.34673" lon="2.77461">
        <ele>74.64</ele>
        <time>2014-08-15T10:43:27Z</time>
      </trkpt>
      <trkpt lat="48.34657" lon="2.77452">
        <ele>75.12</ele>
        <time>2014-08-15T10:43:38Z</time>
      </trkpt>
      <trkpt lat="48.34648" lon="2.77446">
        <ele>73.68</ele>
        <time>2014-08-15T10:43:50Z</time>
      </trkpt>
      <trkpt lat="48.34648" lon="2.77445">
        <ele>73.68</ele>
        <time>2014-08-15T10:43:51Z</time>
      </trkpt>
      <trkpt lat="48.34644" lon="2.77444">
        <ele>73.2</ele>
        <time>2014-08-15T10:43:53Z</time>
      </trkpt>
      <trkpt lat="48.34632" lon="2.77437">
        <ele>71.76</ele>
        <time>2014-08-15T10:44:07Z</time>
      </trkpt>
      <trkpt lat="48.34626" lon="2.77432">
        <ele>70.31</ele>
        <time>2014-08-15T10:44:12Z</time>
      </trkpt>
      <trkpt lat="48.34615" lon="2.77428">
        <ele>69.83</ele>
        <time>2014-08-15T10:44:18Z</time>
      </trkpt>
      <trkpt lat="48.34611" lon="2.77426">
        <ele>70.31</ele>
        <time>2014-08-15T10:44:24Z</time>
      </trkpt>
      <trkpt lat="48.34599" lon="2.77421">
        <ele>72.24</ele>
        <time>2014-08-15T10:44:37Z</time>
      </trkpt>
      <trkpt lat="48.34592" lon="2.77418">
        <ele>72.72</ele>
        <time>2014-08-15T10:44:50Z</time>
      </trkpt>
      <trkpt lat="48.34592" lon="2.77417">
        <ele>73.2</ele>
        <time>2014-08-15T10:45:03Z</time>
      </trkpt>
      <trkpt lat="48.34583" lon="2.7741">
        <ele>74.16</ele>
        <time>2014-08-15T10:45:15Z</time>
      </trkpt>
      <trkpt lat="48.34582" lon="2.77408">
        <ele>74.64</ele>
        <time>2014-08-15T10:45:17Z</time>
      </trkpt>
      <trkpt lat="48.34572" lon="2.77393">
        <ele>71.76</ele>
        <time>2014-08-15T10:45:28Z</time>
      </trkpt>
      <trkpt lat="48.3457" lon="2.77389">
        <ele>71.27</ele>
        <time>2014-08-15T10:45:31Z</time>
      </trkpt>
      <trkpt lat="48.34568" lon="2.77387">
        <ele>70.79</ele>
        <time>2014-08-15T10:45:33Z</time>
      </trkpt>
      <trkpt lat="48.34566" lon="2.77383">
        <ele>69.83</ele>
        <time>2014-08-15T10:45:35Z</time>
      </trkpt>
      <trkpt lat="48.34564" lon="2.77375">
        <ele>69.35</ele>
        <time>2014-08-15T10:45:39Z</time>
      </trkpt>
      <trkpt lat="48.34554" lon="2.77359">
        <ele>65.99</ele>
        <time>2014-08-15T10:45:53Z</time>
      </trkpt>
      <trkpt lat="48.34546" lon="2.77342">
        <ele>67.43</ele>
        <time>2014-08-15T10:46:06Z</time>
      </trkpt>
      <trkpt lat="48.34543" lon="2.77332">
        <ele>69.35</ele>
        <time>2014-08-15T10:46:14Z</time>
      </trkpt>
      <trkpt lat="48.34532" lon="2.77318">
        <ele>70.79</ele>
        <time>2014-08-15T10:46:27Z</time>
      </trkpt>
      <trkpt lat="48.34531" lon="2.77313">
        <ele>71.27</ele>
        <time>2014-08-15T10:46:45Z</time>
      </trkpt>
      <trkpt lat="48.34535" lon="2.77306">
        <ele>71.27</ele>
        <time>2014-08-15T10:47:03Z</time>
      </trkpt>
      <trkpt lat="48.34533" lon="2.773">
        <ele>69.35</ele>
        <time>2014-08-15T10:47:18Z</time>
      </trkpt>
      <trkpt lat="48.34532" lon="2.77299">
        <ele>67.91</ele>
        <time>2014-08-15T10:47:47Z</time>
      </trkpt>
      <trkpt lat="48.34526" lon="2.77291">
        <ele>65.03</ele>
        <time>2014-08-15T10:47:58Z</time>
      </trkpt>
      <trkpt lat="48.34522" lon="2.77282">
        <ele>65.03</ele>
        <time>2014-08-15T10:48:12Z</time>
      </trkpt>
      <trkpt lat="48.34521" lon="2.7728">
        <ele>65.03</ele>
        <time>2014-08-15T10:48:34Z</time>
      </trkpt>
      <trkpt lat="48.34515" lon="2.7727">
        <ele>63.58</ele>
        <time>2014-08-15T10:48:46Z</time>
      </trkpt>
      <trkpt lat="48.34511" lon="2.77263">
        <ele>63.1</ele>
        <time>2014-08-15T10:48:51Z</time>
      </trkpt>
      <trkpt lat="48.34505" lon="2.7725">
        <ele>61.66</ele>
        <time>2014-08-15T10:49:01Z</time>
      </trkpt>
      <trkpt lat="48.34496" lon="2.77239">
        <ele>62.14</ele>
        <time>2014-08-15T10:49:11Z</time>
      </trkpt>
      <trkpt lat="48.34486" lon="2.7722">
        <ele>61.66</ele>
        <time>2014-08-15T10:49:25Z</time>
      </trkpt>
      <trkpt lat="48.34476" lon="2.77207">
        <ele>63.1</ele>
        <time>2014-08-15T10:49:40Z</time>
      </trkpt>
      <trkpt lat="48.34472" lon="2.77202">
        <ele>63.58</ele>
        <time>2014-08-15T10:49:46Z</time>
      </trkpt>
      <trkpt lat="48.34478" lon="2.77186">
        <ele>63.1</ele>
        <time>2014-08-15T10:50:00Z</time>
      </trkpt>
      <trkpt lat="48.34488" lon="2.77174">
        <ele>64.07</ele>
        <time>2014-08-15T10:50:15Z</time>
      </trkpt>
      <trkpt lat="48.34497" lon="2.7716">
        <ele>61.18</ele>
        <time>2014-08-15T10:50:28Z</time>
      </trkpt>
      <trkpt lat="48.34499" lon="2.77156">
        <ele>60.7</ele>
        <time>2014-08-15T10:50:31Z</time>
      </trkpt>
      <trkpt lat="48.34515" lon="2.77146">
        <ele>65.51</ele>
        <time>2014-08-15T10:50:46Z</time>
      </trkpt>
      <trkpt lat="48.34526" lon="2.77136">
        <ele>68.39</ele>
        <time>2014-08-15T10:50:58Z</time>
      </trkpt>
      <trkpt lat="48.34542" lon="2.77129">
        <ele>71.27</ele>
        <time>2014-08-15T10:51:12Z</time>
      </trkpt>
      <trkpt lat="48.34557" lon="2.77113">
        <ele>75.12</ele>
        <time>2014-08-15T10:51:28Z</time>
      </trkpt>
      <trkpt lat="48.34557" lon="2.77111">
        <ele>75.12</ele>
        <time>2014-08-15T10:51:29Z</time>
      </trkpt>
      <trkpt lat="48.3456" lon="2.77106">
        <ele>75.6</ele>
        <time>2014-08-15T10:51:32Z</time>
      </trkpt>
      <trkpt lat="48.34557" lon="2.77101">
        <ele>74.16</ele>
        <time>2014-08-15T10:51:39Z</time>
      </trkpt>
      <trkpt lat="48.34553" lon="2.77097">
        <ele>73.2</ele>
        <time>2014-08-15T10:51:42Z</time>
      </trkpt>
      <trkpt lat="48.34548" lon="2.77091">
        <ele>73.2</ele>
        <time>2014-08-15T10:51:46Z</time>
      </trkpt>
      <trkpt lat="48.34539" lon="2.7707">
        <ele>70.31</ele>
        <time>2014-08-15T10:52:02Z</time>
      </trkpt>
      <trkpt lat="48.34526" lon="2.77049">
        <ele>68.39</ele>
        <time>2014-08-15T10:52:15Z</time>
      </trkpt>
      <trkpt lat="48.34518" lon="2.77039">
        <ele>70.31</ele>
        <time>2014-08-15T10:52:21Z</time>
      </trkpt>
      <trkpt lat="48.34512" lon="2.77032">
        <ele>72.72</ele>
        <time>2014-08-15T10:52:26Z</time>
      </trkpt>
      <trkpt lat="48.3451" lon="2.77028">
        <ele>75.12</ele>
        <time>2014-08-15T10:52:34Z</time>
      </trkpt>
      <trkpt lat="48.34505" lon="2.77018">
        <ele>74.16</ele>
        <time>2014-08-15T10:52:42Z</time>
      </trkpt>
      <trkpt lat="48.34502" lon="2.7701">
        <ele>71.76</ele>
        <time>2014-08-15T10:52:51Z</time>
      </trkpt>
      <trkpt lat="48.34498" lon="2.77004">
        <ele>70.31</ele>
        <time>2014-08-15T10:52:55Z</time>
      </trkpt>
      <trkpt lat="48.34495" lon="2.76996">
        <ele>69.35</ele>
        <time>2014-08-15T10:52:59Z</time>
      </trkpt>
      <trkpt lat="48.34483" lon="2.76973">
        <ele>71.27</ele>
        <time>2014-08-15T10:53:15Z</time>
      </trkpt>
      <trkpt lat="48.34473" lon="2.76954">
        <ele>69.83</ele>
        <time>2014-08-15T10:53:30Z</time>
      </trkpt>
      <trkpt lat="48.34463" lon="2.76938">
        <ele>71.27</ele>
        <time>2014-08-15T10:53:46Z</time>
      </trkpt>
      <trkpt lat="48.3446" lon="2.76934">
        <ele>70.31</ele>
        <time>2014-08-15T10:53:49Z</time>
      </trkpt>
      <trkpt lat="48.3445" lon="2.76921">
        <ele>70.31</ele>
        <time>2014-08-15T10:53:57Z</time>
      </trkpt>
      <trkpt lat="48.3444" lon="2.76905">
        <ele>72.24</ele>
        <time>2014-08-15T10:54:12Z</time>
      </trkpt>
      <trkpt lat="48.34438" lon="2.76898">
        <ele>71.76</ele>
        <time>2014-08-15T10:54:18Z</time>
      </trkpt>
      <trkpt lat="48.34425" lon="2.76877">
        <ele>73.68</ele>
        <time>2014-08-15T10:54:32Z</time>
      </trkpt>
      <trkpt lat="48.3441" lon="2.76858">
        <ele>71.27</ele>
        <time>2014-08-15T10:54:49Z</time>
      </trkpt>
      <trkpt lat="48.344" lon="2.76838">
        <ele>71.76</ele>
        <time>2014-08-15T10:55:05Z</time>
      </trkpt>
      <trkpt lat="48.34395" lon="2.76833">
        <ele>70.31</ele>
        <time>2014-08-15T10:55:10Z</time>
      </trkpt>
      <trkpt lat="48.34389" lon="2.76827">
        <ele>71.27</ele>
        <time>2014-08-15T10:55:15Z</time>
      </trkpt>
      <trkpt lat="48.34377" lon="2.7681">
        <ele>72.72</ele>
        <time>2014-08-15T10:55:32Z</time>
      </trkpt>
      <trkpt lat="48.34362" lon="2.76792">
        <ele>73.2</ele>
        <time>2014-08-15T10:55:46Z</time>
      </trkpt>
      <trkpt lat="48.34348" lon="2.76772">
        <ele>71.76</ele>
        <time>2014-08-15T10:56:03Z</time>
      </trkpt>
      <trkpt lat="48.3434" lon="2.76761">
        <ele>71.27</ele>
        <time>2014-08-15T10:56:16Z</time>
      </trkpt>
      <trkpt lat="48.34327" lon="2.76744">
        <ele>71.27</ele>
        <time>2014-08-15T10:56:31Z</time>
      </trkpt>
      <trkpt lat="48.3432" lon="2.76735">
        <ele>70.79</ele>
        <time>2014-08-15T10:56:40Z</time>
      </trkpt>
      <trkpt lat="48.34304" lon="2.76713">
        <ele>71.76</ele>
        <time>2014-08-15T10:56:57Z</time>
      </trkpt>
      <trkpt lat="48.34302" lon="2.76711">
        <ele>71.27</ele>
        <time>2014-08-15T10:57:00Z</time>
      </trkpt>
      <trkpt lat="48.34286" lon="2.76693">
        <ele>71.76</ele>
        <time>2014-08-15T10:57:16Z</time>
      </trkpt>
      <trkpt lat="48.34281" lon="2.76689">
        <ele>72.72</ele>
        <time>2014-08-15T10:57:20Z</time>
      </trkpt>
      <trkpt lat="48.34274" lon="2.76677">
        <ele>73.2</ele>
        <time>2014-08-15T10:57:31Z</time>
      </trkpt>
      <trkpt lat="48.3426" lon="2.7666">
        <ele>73.2</ele>
        <time>2014-08-15T10:57:46Z</time>
      </trkpt>
      <trkpt lat="48.34252" lon="2.76649">
        <ele>72.72</ele>
        <time>2014-08-15T10:57:57Z</time>
      </trkpt>
      <trkpt lat="48.34239" lon="2.76629">
        <ele>73.68</ele>
        <time>2014-08-15T10:58:12Z</time>
      </trkpt>
      <trkpt lat="48.3423" lon="2.76621">
        <ele>73.68</ele>
        <time>2014-08-15T10:58:21Z</time>
      </trkpt>
      <trkpt lat="48.34221" lon="2.7661">
        <ele>75.12</ele>
        <time>2014-08-15T10:58:32Z</time>
      </trkpt>
      <trkpt lat="48.34215" lon="2.76601">
        <ele>74.64</ele>
        <time>2014-08-15T10:58:38Z</time>
      </trkpt>
      <trkpt lat="48.34202" lon="2.76587">
        <ele>73.68</ele>
        <time>2014-08-15T10:58:52Z</time>
      </trkpt>
      <trkpt lat="48.34192" lon="2.76574">
        <ele>74.64</ele>
        <time>2014-08-15T10:59:05Z</time>
      </trkpt>
      <trkpt lat="48.34181" lon="2.76564">
        <ele>74.16</ele>
        <time>2014-08-15T10:59:17Z</time>
      </trkpt>
      <trkpt lat="48.3417" lon="2.76549">
        <ele>75.6</ele>
        <time>2014-08-15T10:59:30Z</time>
      </trkpt>
      <trkpt lat="48.34165" lon="2.76543">
        <ele>75.6</ele>
        <time>2014-08-15T10:59:36Z</time>
      </trkpt>
      <trkpt lat="48.34154" lon="2.76528">
        <ele>74.16</ele>
        <time>2014-08-15T10:59:49Z</time>
      </trkpt>
      <trkpt lat="48.34142" lon="2.7651">
        <ele>73.68</ele>
        <time>2014-08-15T11:00:04Z</time>
      </trkpt>
      <trkpt lat="48.34133" lon="2.76497">
        <ele>73.68</ele>
        <time>2014-08-15T11:00:15Z</time>
      </trkpt>
      <trkpt lat="48.34128" lon="2.76491">
        <ele>73.68</ele>
        <time>2014-08-15T11:00:20Z</time>
      </trkpt>
      <trkpt lat="48.34126" lon="2.76487">
        <ele>73.68</ele>
        <time>2014-08-15T11:00:22Z</time>
      </trkpt>
      <trkpt lat="48.34116" lon="2.76474">
        <ele>71.76</ele>
        <time>2014-08-15T11:00:36Z</time>
      </trkpt>
      <trkpt lat="48.34114" lon="2.76471">
        <ele>71.27</ele>
        <time>2014-08-15T11:00:39Z</time>
      </trkpt>
      <trkpt lat="48.34103" lon="2.76457">
        <ele>69.83</ele>
        <time>2014-08-15T11:00:48Z</time>
      </trkpt>
      <trkpt lat="48.341" lon="2.76451">
        <ele>69.35</ele>
        <time>2014-08-15T11:00:55Z</time>
      </trkpt>
      <trkpt lat="48.34096" lon="2.76446">
        <ele>69.35</ele>
        <time>2014-08-15T11:01:06Z</time>
      </trkpt>
      <trkpt lat="48.34095" lon="2.76444">
        <ele>69.35</ele>
        <time>2014-08-15T11:01:13Z</time>
      </trkpt>
      <trkpt lat="48.34099" lon="2.7645">
        <ele>68.39</ele>
        <time>2014-08-15T11:01:21Z</time>
      </trkpt>
      <trkpt lat="48.34088" lon="2.76462">
        <ele>65.99</ele>
        <time>2014-08-15T11:01:34Z</time>
      </trkpt>
      <trkpt lat="48.34072" lon="2.76474">
        <ele>63.1</ele>
        <time>2014-08-15T11:01:48Z</time>
      </trkpt>
      <trkpt lat="48.3407" lon="2.76475">
        <ele>62.62</ele>
        <time>2014-08-15T11:01:50Z</time>
      </trkpt>
      <trkpt lat="48.34056" lon="2.76481">
        <ele>59.74</ele>
        <time>2014-08-15T11:02:06Z</time>
      </trkpt>
      <trkpt lat="48.34041" lon="2.76494">
        <ele>58.3</ele>
        <time>2014-08-15T11:02:22Z</time>
      </trkpt>
      <trkpt lat="48.34041" lon="2.76497">
        <ele>58.3</ele>
        <time>2014-08-15T11:02:25Z</time>
      </trkpt>
      <trkpt lat="48.34039" lon="2.765">
        <ele>58.3</ele>
        <time>2014-08-15T11:02:27Z</time>
      </trkpt>
      <trkpt lat="48.3402" lon="2.76523">
        <ele>53.49</ele>
        <time>2014-08-15T11:02:45Z</time>
      </trkpt>
      <trkpt lat="48.34019" lon="2.76523">
        <ele>53.01</ele>
        <time>2014-08-15T11:02:46Z</time>
      </trkpt>
      <trkpt lat="48.34005" lon="2.76512">
        <ele>51.57</ele>
        <time>2014-08-15T11:03:01Z</time>
      </trkpt>
      <trkpt lat="48.33991" lon="2.76498">
        <ele>51.57</ele>
        <time>2014-08-15T11:03:14Z</time>
      </trkpt>
      <trkpt lat="48.33977" lon="2.76491">
        <ele>53.97</ele>
        <time>2014-08-15T11:03:30Z</time>
      </trkpt>
      <trkpt lat="48.33969" lon="2.76487">
        <ele>55.41</ele>
        <time>2014-08-15T11:03:40Z</time>
      </trkpt>
      <trkpt lat="48.33955" lon="2.7648">
        <ele>54.45</ele>
        <time>2014-08-15T11:03:50Z</time>
      </trkpt>
      <trkpt lat="48.33942" lon="2.76476">
        <ele>52.05</ele>
        <time>2014-08-15T11:03:59Z</time>
      </trkpt>
      <trkpt lat="48.3394" lon="2.76475">
        <ele>51.57</ele>
        <time>2014-08-15T11:04:02Z</time>
      </trkpt>
      <trkpt lat="48.33931" lon="2.76458">
        <ele>49.16</ele>
        <time>2014-08-15T11:04:15Z</time>
      </trkpt>
      <trkpt lat="48.33918" lon="2.76433">
        <ele>47.24</ele>
        <time>2014-08-15T11:04:31Z</time>
      </trkpt>
      <trkpt lat="48.33908" lon="2.76414">
        <ele>49.65</ele>
        <time>2014-08-15T11:04:47Z</time>
      </trkpt>
      <trkpt lat="48.33895" lon="2.76383">
        <ele>50.61</ele>
        <time>2014-08-15T11:05:07Z</time>
      </trkpt>
      <trkpt lat="48.33892" lon="2.76379">
        <ele>51.09</ele>
        <time>2014-08-15T11:05:10Z</time>
      </trkpt>
      <trkpt lat="48.33875" lon="2.76342">
        <ele>52.05</ele>
        <time>2014-08-15T11:05:30Z</time>
      </trkpt>
      <trkpt lat="48.33868" lon="2.76323">
        <ele>53.49</ele>
        <time>2014-08-15T11:05:44Z</time>
      </trkpt>
      <trkpt lat="48.33867" lon="2.76318">
        <ele>53.97</ele>
        <time>2014-08-15T11:05:48Z</time>
      </trkpt>
      <trkpt lat="48.33859" lon="2.76298">
        <ele>54.45</ele>
        <time>2014-08-15T11:06:02Z</time>
      </trkpt>
      <trkpt lat="48.33858" lon="2.76295">
        <ele>54.93</ele>
        <time>2014-08-15T11:06:04Z</time>
      </trkpt>
      <trkpt lat="48.3385" lon="2.76276">
        <ele>56.86</ele>
        <time>2014-08-15T11:06:16Z</time>
      </trkpt>
      <trkpt lat="48.33839" lon="2.76262">
        <ele>56.86</ele>
        <time>2014-08-15T11:06:27Z</time>
      </trkpt>
      <trkpt lat="48.33836" lon="2.76255">
        <ele>57.34</ele>
        <time>2014-08-15T11:06:32Z</time>
      </trkpt>
      <trkpt lat="48.33823" lon="2.76236">
        <ele>60.22</ele>
        <time>2014-08-15T11:06:49Z</time>
      </trkpt>
      <trkpt lat="48.33821" lon="2.76234">
        <ele>60.7</ele>
        <time>2014-08-15T11:06:51Z</time>
      </trkpt>
      <trkpt lat="48.33806" lon="2.76217">
        <ele>61.66</ele>
        <time>2014-08-15T11:07:08Z</time>
      </trkpt>
      <trkpt lat="48.33796" lon="2.76195">
        <ele>60.22</ele>
        <time>2014-08-15T11:07:22Z</time>
      </trkpt>
      <trkpt lat="48.33799" lon="2.76173">
        <ele>57.34</ele>
        <time>2014-08-15T11:07:35Z</time>
      </trkpt>
      <trkpt lat="48.33801" lon="2.76166">
        <ele>57.82</ele>
        <time>2014-08-15T11:07:40Z</time>
      </trkpt>
      <trkpt lat="48.33799" lon="2.76158">
        <ele>57.82</ele>
        <time>2014-08-15T11:07:46Z</time>
      </trkpt>
      <trkpt lat="48.33798" lon="2.76142">
        <ele>58.3</ele>
        <time>2014-08-15T11:08:01Z</time>
      </trkpt>
      <trkpt lat="48.33796" lon="2.76118">
        <ele>58.3</ele>
        <time>2014-08-15T11:08:18Z</time>
      </trkpt>
      <trkpt lat="48.33797" lon="2.76108">
        <ele>58.3</ele>
        <time>2014-08-15T11:08:25Z</time>
      </trkpt>
      <trkpt lat="48.33805" lon="2.76089">
        <ele>58.78</ele>
        <time>2014-08-15T11:08:38Z</time>
      </trkpt>
      <trkpt lat="48.33813" lon="2.76071">
        <ele>59.74</ele>
        <time>2014-08-15T11:08:50Z</time>
      </trkpt>
      <trkpt lat="48.33817" lon="2.76061">
        <ele>60.22</ele>
        <time>2014-08-15T11:09:02Z</time>
      </trkpt>
      <trkpt lat="48.33826" lon="2.7604">
        <ele>61.18</ele>
        <time>2014-08-15T11:09:15Z</time>
      </trkpt>
      <trkpt lat="48.33834" lon="2.7602">
        <ele>63.58</ele>
        <time>2014-08-15T11:09:29Z</time>
      </trkpt>
      <trkpt lat="48.33844" lon="2.76006">
        <ele>67.43</ele>
        <time>2014-08-15T11:09:45Z</time>
      </trkpt>
      <trkpt lat="48.33853" lon="2.75996">
        <ele>68.39</ele>
        <time>2014-08-15T11:09:58Z</time>
      </trkpt>
      <trkpt lat="48.33853" lon="2.75994">
        <ele>68.39</ele>
        <time>2014-08-15T11:10:01Z</time>
      </trkpt>
      <trkpt lat="48.3386" lon="2.75964">
        <ele>67.91</ele>
        <time>2014-08-15T11:10:21Z</time>
      </trkpt>
      <trkpt lat="48.33864" lon="2.75958">
        <ele>67.91</ele>
        <time>2014-08-15T11:10:26Z</time>
      </trkpt>
      <trkpt lat="48.33872" lon="2.75948">
        <ele>67.91</ele>
        <time>2014-08-15T11:10:42Z</time>
      </trkpt>
      <trkpt lat="48.33876" lon="2.75942">
        <ele>67.91</ele>
        <time>2014-08-15T11:10:58Z</time>
      </trkpt>
      <trkpt lat="48.33881" lon="2.75935">
        <ele>68.39</ele>
        <time>2014-08-15T11:11:11Z</time>
      </trkpt>
      <trkpt lat="48.33883" lon="2.75932">
        <ele>68.87</ele>
        <time>2014-08-15T11:11:13Z</time>
      </trkpt>
      <trkpt lat="48.33888" lon="2.75926">
        <ele>69.83</ele>
        <time>2014-08-15T11:11:29Z</time>
      </trkpt>
      <trkpt lat="48.33888" lon="2.75926">
        <ele>69.35</ele>
        <time>2014-08-15T11:11:44Z</time>
      </trkpt>
      <trkpt lat="48.33897" lon="2.75908">
        <ele>70.79</ele>
        <time>2014-08-15T11:11:59Z</time>
      </trkpt>
      <trkpt lat="48.339" lon="2.759">
        <ele>72.24</ele>
        <time>2014-08-15T11:12:05Z</time>
      </trkpt>
      <trkpt lat="48.33906" lon="2.7588">
        <ele>74.16</ele>
        <time>2014-08-15T11:12:16Z</time>
      </trkpt>
      <trkpt lat="48.33907" lon="2.75866">
        <ele>75.12</ele>
        <time>2014-08-15T11:12:28Z</time>
      </trkpt>
      <trkpt lat="48.33906" lon="2.7586">
        <ele>75.12</ele>
        <time>2014-08-15T11:12:32Z</time>
      </trkpt>
      <trkpt lat="48.33904" lon="2.75834">
        <ele>75.12</ele>
        <time>2014-08-15T11:12:49Z</time>
      </trkpt>
      <trkpt lat="48.33903" lon="2.7582">
        <ele>73.68</ele>
        <time>2014-08-15T11:13:00Z</time>
      </trkpt>
      <trkpt lat="48.33902" lon="2.75815">
        <ele>72.72</ele>
        <time>2014-08-15T11:13:04Z</time>
      </trkpt>
      <trkpt lat="48.33905" lon="2.75797">
        <ele>68.87</ele>
        <time>2014-08-15T11:13:16Z</time>
      </trkpt>
      <trkpt lat="48.33898" lon="2.75773">
        <ele>72.24</ele>
        <time>2014-08-15T11:13:32Z</time>
      </trkpt>
      <trkpt lat="48.33897" lon="2.75772">
        <ele>73.2</ele>
        <time>2014-08-15T11:13:39Z</time>
      </trkpt>
      <trkpt lat="48.33892" lon="2.75749">
        <ele>74.16</ele>
        <time>2014-08-15T11:13:55Z</time>
      </trkpt>
      <trkpt lat="48.33896" lon="2.75735">
        <ele>75.12</ele>
        <time>2014-08-15T11:14:07Z</time>
      </trkpt>
      <trkpt lat="48.33896" lon="2.75729">
        <ele>75.12</ele>
        <time>2014-08-15T11:14:11Z</time>
      </trkpt>
      <trkpt lat="48.33896" lon="2.75699">
        <ele>75.6</ele>
        <time>2014-08-15T11:14:28Z</time>
      </trkpt>
      <trkpt lat="48.33897" lon="2.75673">
        <ele>74.64</ele>
        <time>2014-08-15T11:14:42Z</time>
      </trkpt>
      <trkpt lat="48.33892" lon="2.75643">
        <ele>80.89</ele>
        <time>2014-08-15T11:15:00Z</time>
      </trkpt>
      <trkpt lat="48.33893" lon="2.75619">
        <ele>82.33</ele>
        <time>2014-08-15T11:15:13Z</time>
      </trkpt>
      <trkpt lat="48.33893" lon="2.75615">
        <ele>81.85</ele>
        <time>2014-08-15T11:15:15Z</time>
      </trkpt>
      <trkpt lat="48.33892" lon="2.7559">
        <ele>82.33</ele>
        <time>2014-08-15T11:15:30Z</time>
      </trkpt>
      <trkpt lat="48.33892" lon="2.7556">
        <ele>80.89</ele>
        <time>2014-08-15T11:15:47Z</time>
      </trkpt>
      <trkpt lat="48.3389" lon="2.75546">
        <ele>79.93</ele>
        <time>2014-08-15T11:15:55Z</time>
      </trkpt>
      <trkpt lat="48.33891" lon="2.75522">
        <ele>78.97</ele>
        <time>2014-08-15T11:16:10Z</time>
      </trkpt>
      <trkpt lat="48.33887" lon="2.75497">
        <ele>80.41</ele>
        <time>2014-08-15T11:16:27Z</time>
      </trkpt>
      <trkpt lat="48.33886" lon="2.75472">
        <ele>82.33</ele>
        <time>2014-08-15T11:16:41Z</time>
      </trkpt>
      <trkpt lat="48.33891" lon="2.75446">
        <ele>85.69</ele>
        <time>2014-08-15T11:16:54Z</time>
      </trkpt>
      <trkpt lat="48.33893" lon="2.75427">
        <ele>86.66</ele>
        <time>2014-08-15T11:17:11Z</time>
      </trkpt>
      <trkpt lat="48.339" lon="2.75407">
        <ele>86.66</ele>
        <time>2014-08-15T11:17:26Z</time>
      </trkpt>
      <trkpt lat="48.33907" lon="2.75396">
        <ele>88.1</ele>
        <time>2014-08-15T11:17:34Z</time>
      </trkpt>
      <trkpt lat="48.33913" lon="2.75371">
        <ele>87.14</ele>
        <time>2014-08-15T11:17:48Z</time>
      </trkpt>
      <trkpt lat="48.33915" lon="2.75363">
        <ele>87.14</ele>
        <time>2014-08-15T11:17:52Z</time>
      </trkpt>
      <trkpt lat="48.33921" lon="2.75339">
        <ele>85.69</ele>
        <time>2014-08-15T11:18:04Z</time>
      </trkpt>
      <trkpt lat="48.33928" lon="2.75319">
        <ele>85.21</ele>
        <time>2014-08-15T11:18:20Z</time>
      </trkpt>
      <trkpt lat="48.33934" lon="2.75291">
        <ele>88.1</ele>
        <time>2014-08-15T11:18:34Z</time>
      </trkpt>
      <trkpt lat="48.33934" lon="2.75289">
        <ele>88.58</ele>
        <time>2014-08-15T11:18:35Z</time>
      </trkpt>
      <trkpt lat="48.33936" lon="2.7528">
        <ele>89.54</ele>
        <time>2014-08-15T11:18:40Z</time>
      </trkpt>
      <trkpt lat="48.33938" lon="2.75255">
        <ele>90.02</ele>
        <time>2014-08-15T11:18:52Z</time>
      </trkpt>
      <trkpt lat="48.33938" lon="2.75236">
        <ele>90.02</ele>
        <time>2014-08-15T11:19:02Z</time>
      </trkpt>
      <trkpt lat="48.33941" lon="2.75223">
        <ele>87.62</ele>
        <time>2014-08-15T11:19:11Z</time>
      </trkpt>
      <trkpt lat="48.33942" lon="2.75218">
        <ele>87.62</ele>
        <time>2014-08-15T11:19:15Z</time>
      </trkpt>
      <trkpt lat="48.33942" lon="2.75215">
        <ele>87.62</ele>
        <time>2014-08-15T11:19:17Z</time>
      </trkpt>
      <trkpt lat="48.33943" lon="2.75193">
        <ele>90.02</ele>
        <time>2014-08-15T11:19:32Z</time>
      </trkpt>
      <trkpt lat="48.33946" lon="2.75174">
        <ele>91.94</ele>
        <time>2014-08-15T11:19:46Z</time>
      </trkpt>
      <trkpt lat="48.33954" lon="2.75154">
        <ele>95.31</ele>
        <time>2014-08-15T11:20:00Z</time>
      </trkpt>
      <trkpt lat="48.33953" lon="2.7515">
        <ele>95.31</ele>
        <time>2014-08-15T11:20:02Z</time>
      </trkpt>
      <trkpt lat="48.33965" lon="2.75126">
        <ele>92.42</ele>
        <time>2014-08-15T11:20:18Z</time>
      </trkpt>
      <trkpt lat="48.33967" lon="2.75111">
        <ele>93.39</ele>
        <time>2014-08-15T11:20:31Z</time>
      </trkpt>
      <trkpt lat="48.33967" lon="2.7509">
        <ele>93.87</ele>
        <time>2014-08-15T11:20:45Z</time>
      </trkpt>
      <trkpt lat="48.33965" lon="2.75071">
        <ele>97.23</ele>
        <time>2014-08-15T11:20:58Z</time>
      </trkpt>
      <trkpt lat="48.33961" lon="2.75048">
        <ele>100.6</ele>
        <time>2014-08-15T11:21:13Z</time>
      </trkpt>
      <trkpt lat="48.33958" lon="2.75017">
        <ele>100.11</ele>
        <time>2014-08-15T11:21:27Z</time>
      </trkpt>
      <trkpt lat="48.33957" lon="2.74995">
        <ele>101.56</ele>
        <time>2014-08-15T11:21:40Z</time>
      </trkpt>
      <trkpt lat="48.33951" lon="2.74974">
        <ele>104.44</ele>
        <time>2014-08-15T11:21:54Z</time>
      </trkpt>
      <trkpt lat="48.33947" lon="2.74958">
        <ele>103.48</ele>
        <time>2014-08-15T11:22:05Z</time>
      </trkpt>
      <trkpt lat="48.33939" lon="2.74918">
        <ele>99.63</ele>
        <time>2014-08-15T11:22:23Z</time>
      </trkpt>
      <trkpt lat="48.33935" lon="2.74901">
        <ele>99.15</ele>
        <time>2014-08-15T11:22:39Z</time>
      </trkpt>
      <trkpt lat="48.33934" lon="2.74871">
        <ele>99.15</ele>
        <time>2014-08-15T11:22:54Z</time>
      </trkpt>
      <trkpt lat="48.33932" lon="2.74838">
        <ele>98.67</ele>
        <time>2014-08-15T11:23:12Z</time>
      </trkpt>
      <trkpt lat="48.33935" lon="2.74813">
        <ele>98.19</ele>
        <time>2014-08-15T11:23:27Z</time>
      </trkpt>
      <trkpt lat="48.33938" lon="2.74786">
        <ele>98.19</ele>
        <time>2014-08-15T11:23:42Z</time>
      </trkpt>
      <trkpt lat="48.33931" lon="2.74755">
        <ele>110.21</ele>
        <time>2014-08-15T11:23:59Z</time>
      </trkpt>
      <trkpt lat="48.33932" lon="2.7473">
        <ele>110.69</ele>
        <time>2014-08-15T11:24:14Z</time>
      </trkpt>
      <trkpt lat="48.33933" lon="2.74728">
        <ele>110.69</ele>
        <time>2014-08-15T11:24:16Z</time>
      </trkpt>
      <trkpt lat="48.33933" lon="2.74716">
        <ele>107.32</ele>
        <time>2014-08-15T11:24:24Z</time>
      </trkpt>
      <trkpt lat="48.33936" lon="2.74678">
        <ele>104.92</ele>
        <time>2014-08-15T11:24:43Z</time>
      </trkpt>
      <trkpt lat="48.33937" lon="2.74644">
        <ele>102.52</ele>
        <time>2014-08-15T11:25:01Z</time>
      </trkpt>
      <trkpt lat="48.33935" lon="2.74625">
        <ele>103.48</ele>
        <time>2014-08-15T11:25:18Z</time>
      </trkpt>
      <trkpt lat="48.33938" lon="2.74599">
        <ele>95.79</ele>
        <time>2014-08-15T11:25:34Z</time>
      </trkpt>
      <trkpt lat="48.33939" lon="2.74598">
        <ele>95.79</ele>
        <time>2014-08-15T11:25:35Z</time>
      </trkpt>
      <trkpt lat="48.33935" lon="2.74572">
        <ele>94.83</ele>
        <time>2014-08-15T11:25:52Z</time>
      </trkpt>
      <trkpt lat="48.33932" lon="2.74555">
        <ele>95.31</ele>
        <time>2014-08-15T11:26:03Z</time>
      </trkpt>
      <trkpt lat="48.33928" lon="2.74545">
        <ele>93.39</ele>
        <time>2014-08-15T11:26:10Z</time>
      </trkpt>
      <trkpt lat="48.33924" lon="2.74542">
        <ele>93.39</ele>
        <time>2014-08-15T11:26:15Z</time>
      </trkpt>
      <trkpt lat="48.33917" lon="2.74533">
        <ele>92.9</ele>
        <time>2014-08-15T11:26:21Z</time>
      </trkpt>
      <trkpt lat="48.33899" lon="2.74507">
        <ele>91.46</ele>
        <time>2014-08-15T11:26:39Z</time>
      </trkpt>
      <trkpt lat="48.33894" lon="2.745">
        <ele>90.02</ele>
        <time>2014-08-15T11:26:51Z</time>
      </trkpt>
      <trkpt lat="48.33884" lon="2.74493">
        <ele>89.54</ele>
        <time>2014-08-15T11:27:01Z</time>
      </trkpt>
      <trkpt lat="48.33863" lon="2.74491">
        <ele>89.06</ele>
        <time>2014-08-15T11:27:16Z</time>
      </trkpt>
      <trkpt lat="48.33864" lon="2.74479">
        <ele>89.54</ele>
        <time>2014-08-15T11:27:30Z</time>
      </trkpt>
      <trkpt lat="48.3387" lon="2.74475">
        <ele>90.02</ele>
        <time>2014-08-15T11:27:44Z</time>
      </trkpt>
      <trkpt lat="48.33869" lon="2.74472">
        <ele>90.5</ele>
        <time>2014-08-15T11:27:46Z</time>
      </trkpt>
      <trkpt lat="48.33865" lon="2.74447">
        <ele>91.46</ele>
        <time>2014-08-15T11:28:01Z</time>
      </trkpt>
      <trkpt lat="48.33864" lon="2.74418">
        <ele>91.94</ele>
        <time>2014-08-15T11:28:17Z</time>
      </trkpt>
      <trkpt lat="48.33868" lon="2.74396">
        <ele>87.62</ele>
        <time>2014-08-15T11:28:32Z</time>
      </trkpt>
      <trkpt lat="48.33868" lon="2.74382">
        <ele>86.18</ele>
        <time>2014-08-15T11:28:40Z</time>
      </trkpt>
      <trkpt lat="48.33871" lon="2.74355">
        <ele>85.21</ele>
        <time>2014-08-15T11:28:56Z</time>
      </trkpt>
      <trkpt lat="48.3387" lon="2.74334">
        <ele>83.77</ele>
        <time>2014-08-15T11:29:08Z</time>
      </trkpt>
      <trkpt lat="48.33874" lon="2.74328">
        <ele>84.73</ele>
        <time>2014-08-15T11:29:16Z</time>
      </trkpt>
      <trkpt lat="48.33886" lon="2.74325">
        <ele>88.58</ele>
        <time>2014-08-15T11:29:28Z</time>
      </trkpt>
      <trkpt lat="48.33879" lon="2.74325">
        <ele>89.06</ele>
        <time>2014-08-15T11:29:38Z</time>
      </trkpt>
      <trkpt lat="48.33878" lon="2.74325">
        <ele>89.06</ele>
        <time>2014-08-15T11:29:40Z</time>
      </trkpt>
      <trkpt lat="48.33878" lon="2.74314">
        <ele>88.58</ele>
        <time>2014-08-15T11:29:52Z</time>
      </trkpt>
      <trkpt lat="48.33874" lon="2.74278">
        <ele>85.21</ele>
        <time>2014-08-15T11:30:11Z</time>
      </trkpt>
      <trkpt lat="48.33873" lon="2.74267">
        <ele>85.69</ele>
        <time>2014-08-15T11:30:17Z</time>
      </trkpt>
      <trkpt lat="48.3387" lon="2.7424">
        <ele>85.69</ele>
        <time>2014-08-15T11:30:34Z</time>
      </trkpt>
      <trkpt lat="48.3387" lon="2.74237">
        <ele>86.18</ele>
        <time>2014-08-15T11:30:36Z</time>
      </trkpt>
      <trkpt lat="48.33867" lon="2.74224">
        <ele>89.54</ele>
        <time>2014-08-15T11:30:44Z</time>
      </trkpt>
      <trkpt lat="48.33867" lon="2.74221">
        <ele>89.54</ele>
        <time>2014-08-15T11:30:46Z</time>
      </trkpt>
      <trkpt lat="48.33867" lon="2.74213">
        <ele>89.06</ele>
        <time>2014-08-15T11:30:51Z</time>
      </trkpt>
      <trkpt lat="48.33865" lon="2.74194">
        <ele>87.14</ele>
        <time>2014-08-15T11:31:04Z</time>
      </trkpt>
      <trkpt lat="48.3386" lon="2.74188">
        <ele>88.1</ele>
        <time>2014-08-15T11:31:12Z</time>
      </trkpt>
      <trkpt lat="48.33857" lon="2.74187">
        <ele>89.54</ele>
        <time>2014-08-15T11:31:25Z</time>
      </trkpt>
      <trkpt lat="48.33857" lon="2.74187">
        <ele>89.54</ele>
        <time>2014-08-15T11:31:31Z</time>
      </trkpt>
      <trkpt lat="48.33854" lon="2.74188">
        <ele>89.54</ele>
        <time>2014-08-15T11:31:44Z</time>
      </trkpt>
      <trkpt lat="48.33852" lon="2.74188">
        <ele>89.06</ele>
        <time>2014-08-15T11:31:46Z</time>
      </trkpt>
      <trkpt lat="48.33838" lon="2.74186">
        <ele>89.06</ele>
        <time>2014-08-15T11:32:00Z</time>
      </trkpt>
      <trkpt lat="48.33829" lon="2.74183">
        <ele>89.54</ele>
        <time>2014-08-15T11:32:10Z</time>
      </trkpt>
      <trkpt lat="48.33827" lon="2.74201">
        <ele>91.94</ele>
        <time>2014-08-15T11:32:21Z</time>
      </trkpt>
      <trkpt lat="48.33825" lon="2.74201">
        <ele>92.42</ele>
        <time>2014-08-15T11:32:23Z</time>
      </trkpt>
      <trkpt lat="48.33807" lon="2.74202">
        <ele>91.94</ele>
        <time>2014-08-15T11:32:37Z</time>
      </trkpt>
      <trkpt lat="48.33791" lon="2.74203">
        <ele>91.46</ele>
        <time>2014-08-15T11:32:50Z</time>
      </trkpt>
      <trkpt lat="48.33769" lon="2.74204">
        <ele>88.1</ele>
        <time>2014-08-15T11:33:05Z</time>
      </trkpt>
      <trkpt lat="48.33754" lon="2.74207">
        <ele>88.1</ele>
        <time>2014-08-15T11:33:17Z</time>
      </trkpt>
      <trkpt lat="48.33739" lon="2.74203">
        <ele>84.73</ele>
        <time>2014-08-15T11:33:32Z</time>
      </trkpt>
      <trkpt lat="48.33729" lon="2.74198">
        <ele>84.73</ele>
        <time>2014-08-15T11:33:42Z</time>
      </trkpt>
      <trkpt lat="48.33715" lon="2.74198">
        <ele>84.25</ele>
        <time>2014-08-15T11:33:55Z</time>
      </trkpt>
      <trkpt lat="48.33691" lon="2.74201">
        <ele>84.73</ele>
        <time>2014-08-15T11:34:16Z</time>
      </trkpt>
      <trkpt lat="48.33685" lon="2.74195">
        <ele>83.29</ele>
        <time>2014-08-15T11:34:29Z</time>
      </trkpt>
      <trkpt lat="48.33681" lon="2.74191">
        <ele>86.66</ele>
        <time>2014-08-15T11:34:42Z</time>
      </trkpt>
      <trkpt lat="48.33681" lon="2.7419">
        <ele>88.58</ele>
        <time>2014-08-15T11:34:58Z</time>
      </trkpt>
      <trkpt lat="48.33682" lon="2.74187">
        <ele>88.1</ele>
        <time>2014-08-15T11:35:01Z</time>
      </trkpt>
      <trkpt lat="48.33686" lon="2.74164">
        <ele>84.73</ele>
        <time>2014-08-15T11:35:13Z</time>
      </trkpt>
      <trkpt lat="48.3369" lon="2.74136">
        <ele>84.25</ele>
        <time>2014-08-15T11:35:29Z</time>
      </trkpt>
      <trkpt lat="48.33692" lon="2.7412">
        <ele>85.21</ele>
        <time>2014-08-15T11:35:44Z</time>
      </trkpt>
      <trkpt lat="48.33691" lon="2.74102">
        <ele>85.69</ele>
        <time>2014-08-15T11:36:01Z</time>
      </trkpt>
      <trkpt lat="48.3369" lon="2.7408">
        <ele>87.14</ele>
        <time>2014-08-15T11:36:15Z</time>
      </trkpt>
      <trkpt lat="48.33691" lon="2.74072">
        <ele>87.14</ele>
        <time>2014-08-15T11:36:22Z</time>
      </trkpt>
      <trkpt lat="48.33686" lon="2.74057">
        <ele>85.21</ele>
        <time>2014-08-15T11:36:33Z</time>
      </trkpt>
      <trkpt lat="48.33683" lon="2.74047">
        <ele>84.73</ele>
        <time>2014-08-15T11:36:39Z</time>
      </trkpt>
      <trkpt lat="48.33682" lon="2.74022">
        <ele>83.29</ele>
        <time>2014-08-15T11:36:52Z</time>
      </trkpt>
      <trkpt lat="48.3368" lon="2.74001">
        <ele>84.73</ele>
        <time>2014-08-15T11:37:05Z</time>
      </trkpt>
      <trkpt lat="48.33681" lon="2.73977">
        <ele>86.18</ele>
        <time>2014-08-15T11:37:20Z</time>
      </trkpt>
      <trkpt lat="48.33686" lon="2.7396">
        <ele>85.21</ele>
        <time>2014-08-15T11:37:34Z</time>
      </trkpt>
      <trkpt lat="48.33686" lon="2.73957">
        <ele>85.21</ele>
        <time>2014-08-15T11:37:36Z</time>
      </trkpt>
      <trkpt lat="48.33687" lon="2.73938">
        <ele>84.73</ele>
        <time>2014-08-15T11:37:48Z</time>
      </trkpt>
      <trkpt lat="48.33689" lon="2.73913">
        <ele>83.77</ele>
        <time>2014-08-15T11:38:04Z</time>
      </trkpt>
      <trkpt lat="48.33685" lon="2.73894">
        <ele>81.37</ele>
        <time>2014-08-15T11:38:19Z</time>
      </trkpt>
      <trkpt lat="48.33673" lon="2.73882">
        <ele>83.77</ele>
        <time>2014-08-15T11:38:33Z</time>
      </trkpt>
      <trkpt lat="48.33666" lon="2.73877">
        <ele>82.81</ele>
        <time>2014-08-15T11:38:39Z</time>
      </trkpt>
      <trkpt lat="48.33658" lon="2.73873">
        <ele>83.29</ele>
        <time>2014-08-15T11:38:46Z</time>
      </trkpt>
      <trkpt lat="48.33655" lon="2.73862">
        <ele>83.77</ele>
        <time>2014-08-15T11:38:54Z</time>
      </trkpt>
      <trkpt lat="48.33655" lon="2.73856">
        <ele>84.25</ele>
        <time>2014-08-15T11:39:11Z</time>
      </trkpt>
      <trkpt lat="48.33654" lon="2.73854">
        <ele>83.77</ele>
        <time>2014-08-15T11:39:28Z</time>
      </trkpt>
      <trkpt lat="48.33655" lon="2.73858">
        <ele>82.33</ele>
        <time>2014-08-15T11:39:45Z</time>
      </trkpt>
      <trkpt lat="48.33655" lon="2.73861">
        <ele>82.33</ele>
        <time>2014-08-15T11:39:48Z</time>
      </trkpt>
    </trkseg>
  </trk>
</gpx>